Flight Track Log - Related Links

Times and Time Zones

All times are in EDT time to prevent confusion due to time zone crossing. See the DAL268 flight status page for this flight to view local times or setup timezone preferences in your user account.

Time Position Orientation Groundspeed Altitude Reporting Facility
EDT Latitude Longitude Course Direction KTS MPH feet Rate Location/Type
Sat 12:00:14 AM 40.6330 -73.7850 North  Level FlightAware ADS-B
Sat 12:06:00 AM 40.8852 -73.5481 37° Northeast  Level FlightAware Approximate
Sat 12:07:00 AM 40.9943 -73.4452 30° Northeast  Level FlightAware Approximate
Sat 12:08:00 AM 41.1144 -73.3518 30° Northeast  Level FlightAware Approximate
Sat 12:09:00 AM 41.2319 -73.2553 29° Northeast  Level FlightAware Approximate
Sat 12:22:19 AM 40.6400 -73.7770 217° Southwest 110 127  Level FlightAware ADS-B
Sat 12:22:40 AM 40.6260 -73.7880 211° Southwest 174 200 200 1,395 Climbing FlightAware ADS-B
Sat 12:23:02 AM 40.6100 -73.8000 210° Southwest 166 191 1,000 2,000 Climbing FlightAware ADS-B
Sat 12:23:22 AM 40.5980 -73.8090 210° Southwest 173 199 1,600 1,714 Climbing FlightAware ADS-B
Sat 12:23:44 AM 40.5800 -73.8200 205° Southwest 178 205 2,200 1,463 Climbing FlightAware ADS-B
Sat 12:24:03 AM 40.5670 -73.8290 208° Southwest 184 212 2,600 1,241 Climbing FlightAware ADS-B
Sat 12:24:13 AM 40.5590 -73.8320 196° South 189 217 2,800 1,286 Climbing FlightAware ADS-B
Sat 12:24:17 AM 40.5550 -73.8330 191° South 192 221 2,900 1,286 Climbing FlightAware ADS-B
Sat 12:24:27 AM 40.5450 -73.8330 180° South 200 230 3,100 1,000 Climbing FlightAware ADS-B
Sat 12:24:35 AM 40.5380 -73.8300 162° South 208 239 3,200 1,000 Climbing FlightAware ADS-B
Sat 12:24:39 AM 40.5340 -73.8280 159° South 214 246 3,300 1,500 Climbing FlightAware ADS-B
Sat 12:24:47 AM 40.5280 -73.8220 143° Southeast 219 252 3,500 1,500 Climbing FlightAware ADS-B
Sat 12:24:51 AM 40.5250 -73.8180 135° Southeast 221 254 3,600 1,286 Climbing FlightAware ADS-B
Sat 12:25:01 AM 40.5190 -73.8060 123° Southeast 230 265 3,800 1,333 Climbing FlightAware ADS-B
Sat 12:25:09 AM 40.5160 -73.7950 110° East 238 274 4,000 1,154 Climbing FlightAware ADS-B
Sat 12:25:27 AM 40.5120 -73.7720 103° East 253 291 4,300 947 Climbing FlightAware ADS-B
Sat 12:25:47 AM 40.5190 -73.7390 74° East 270 311 4,600 800 Climbing FlightAware ADS-B
Sat 12:25:57 AM 40.5240 -73.7290 57° Northeast 277 319 4,700 1,200 Climbing FlightAware ADS-B
Sat 12:26:17 AM 40.5420 -73.7010 50° Northeast 292 336 5,200 1,714 Climbing FlightAware ADS-B
Sat 12:26:32 AM 40.5560 -73.6810 47° Northeast 303 349 5,700 2,229 Climbing FlightAware ADS-B
Sat 12:26:52 AM 40.5810 -73.6600 33° Northeast 307 353 6,500 2,651 Climbing FlightAware ADS-B
Sat 12:27:15 AM 40.6110 -73.6390 28° Northeast 309 356 7,600 2,651 Climbing FlightAware ADS-B
Sat 12:27:35 AM 40.6380 -73.6230 24° Northeast 316 364 8,400 2,341 Climbing FlightAware ADS-B
Sat 12:27:56 AM 40.6670 -73.6050 25° Northeast 318 366 9,200 2,143 Climbing FlightAware ADS-B
Sat 12:28:17 AM 40.6930 -73.5880 26° Northeast 327 376 9,900 1,729 Climbing FlightAware ADS-B
Sat 12:28:55 AM 40.7480 -73.5540 25° Northeast 354 407 10,900 1,333 Climbing FlightAware ADS-B
Sat 12:29:29 AM 40.8020 -73.5210 25° Northeast 385 443 11,500 1,478 Climbing FlightAware ADS-B
Sat 12:30:04 AM 40.8610 -73.4830 26° Northeast 403 464 12,600 2,029 Climbing FlightAware ADS-B
Sat 12:30:37 AM 40.9160 -73.4490 25° Northeast 410 472 13,800 2,118 Climbing FlightAware ADS-B
Sat 12:31:12 AM 40.9720 -73.4010 33° Northeast 421 484 15,000 2,118 Climbing FlightAware ADS-B
Sat 12:31:45 AM 41.0200 -73.3380 45° Northeast 431 496 16,200 2,083 Climbing FlightAware ADS-B
Sat 12:32:24 AM 41.0720 -73.2630 47° Northeast 437 503 17,500 1,917 Climbing FlightAware ADS-B
Sat 12:32:57 AM 41.1180 -73.1980 47° Northeast 445 512 18,500 1,800 Climbing FlightAware ADS-B
Sat 12:33:34 AM 41.1690 -73.1260 47° Northeast 452 520 19,600 1,636 Climbing FlightAware ADS-B
Sat 12:34:14 AM 41.2270 -73.0430 47° Northeast 462 532 20,600 1,541 Climbing FlightAware ADS-B
Sat 12:34:48 AM 41.2790 -72.9690 47° Northeast 468 539 21,500 1,478 Climbing FlightAware ADS-B
Sat 12:35:23 AM 41.3300 -72.9000 45° Northeast 476 548 22,300 1,437 Climbing FlightAware ADS-B
Sat 12:35:59 AM 41.3880 -72.8190 46° Northeast 480 552 23,200 1,341 Climbing FlightAware ADS-B
Sat 12:36:48 AM 41.4640 -72.7130 46° Northeast 493 567 24,200 1,186 Climbing FlightAware ADS-B
Sat 12:37:25 AM 41.5230 -72.6300 46° Northeast 502 578 24,900 1,250 Climbing FlightAware ADS-B
Sat 12:38:00 AM 41.5780 -72.5540 46° Northeast 505 581 25,700 1,324 Climbing FlightAware ADS-B
Sat 12:38:33 AM 41.6300 -72.4800 47° Northeast 508 585 26,400 1,200 Climbing FlightAware ADS-B
Sat 12:39:10 AM 41.6890 -72.3970 46° Northeast 514 592 27,100 1,147 Climbing FlightAware ADS-B
Sat 12:39:41 AM 41.7440 -72.3200 46° Northeast 519 597 27,700 957 Climbing FlightAware ADS-B
Sat 12:40:19 AM 41.8050 -72.2340 46° Northeast 526 605 28,200 822 Climbing FlightAware ADS-B
Sat 12:40:54 AM 41.8510 -72.1700 46° Northeast 525 604 28,700 1,216 Climbing FlightAware ADS-B
Sat 12:41:33 AM 41.9210 -72.0700 47° Northeast 527 606 29,700 1,556 Climbing FlightAware ADS-B
Sat 12:42:15 AM 41.9930 -71.9680 46° Northeast 521 600 30,800 987 Climbing FlightAware ADS-B
Sat 12:42:52 AM 42.0590 -71.8750 46° Northeast 520 598 31,000 185 Climbing FlightAware ADS-B
Sat 12:43:20 AM 42.1080 -71.8050 47° Northeast 517 595 31,000  Level FlightAware ADS-B
Sat 12:43:55 AM 42.1640 -71.7230 47° Northeast 515 593 31,000  Level FlightAware ADS-B
Sat 12:44:31 AM 42.2200 -71.6420 47° Northeast 506 582 31,000  Level FlightAware ADS-B
Sat 12:45:06 AM 42.2780 -71.5580 47° Northeast 506 582 31,000  Level FlightAware ADS-B
Sat 12:45:43 AM 42.3330 -71.4780 47° Northeast 509 586 31,000  Level FlightAware ADS-B
Sat 12:46:16 AM 42.3900 -71.3950 47° Northeast 516 594 31,000  Level FlightAware ADS-B
Sat 12:46:50 AM 42.4470 -71.3120 47° Northeast 511 588 31,000  Level FlightAware ADS-B
Sat 12:47:26 AM 42.5020 -71.2300 48° Northeast 512 589 31,000  Level FlightAware ADS-B
Sat 12:48:00 AM 42.5590 -71.1450 48° Northeast 514 592 31,000  Level FlightAware ADS-B
Sat 12:48:35 AM 42.6180 -71.0570 48° Northeast 520 598 31,000  Level FlightAware ADS-B
Sat 12:49:11 AM 42.6750 -70.9740 47° Northeast 521 600 31,000  Level FlightAware ADS-B
Sat 12:49:45 AM 42.7330 -70.8880 47° Northeast 523 602 31,000  Level FlightAware ADS-B
Sat 12:50:20 AM 42.7900 -70.8040 47° Northeast 523 602 31,000  Level FlightAware ADS-B
Sat 12:50:55 AM 42.8480 -70.7190 47° Northeast 524 603 31,000  Level FlightAware ADS-B
Sat 12:51:30 AM 42.9030 -70.6370 48° Northeast 524 603 31,000  Level FlightAware ADS-B
Sat 12:52:07 AM 42.9620 -70.5500 47° Northeast 524 603 31,000  Level FlightAware ADS-B
Sat 12:52:45 AM 43.0220 -70.4600 48° Northeast 526 605 31,000  Level FlightAware ADS-B
Sat 12:53:21 AM 43.0850 -70.3660 47° Northeast 526 605 31,000  Level FlightAware ADS-B
Sat 12:53:55 AM 43.1410 -70.2800 48° Northeast 528 608 31,000  Level FlightAware ADS-B
Sat 12:54:30 AM 43.1940 -70.2000 48° Northeast 529 609 31,000  Level FlightAware ADS-B
Sat 12:55:10 AM 43.2640 -70.0930 48° Northeast 532 612 31,000  Level FlightAware ADS-B
Sat 12:55:42 AM 43.3140 -70.0170 48° Northeast 532 612 31,000  Level FlightAware ADS-B
Sat 12:56:20 AM 43.3780 -69.9170 49° Northeast 532 612 31,000  Level FlightAware ADS-B
Sat 12:56:50 AM 43.4300 -69.8380 48° Northeast 532 612 31,000  Level FlightAware ADS-B
Sat 12:57:38 AM 43.5010 -69.7290 48° Northeast 532 612 31,000  Level FlightAware ADS-B
Sat 12:58:15 AM 43.5680 -69.6230 49° Northeast 532 612 31,000  Level FlightAware ADS-B
Sat 12:59:06 AM 43.6490 -69.4970 48° Northeast 531 611 31,000  Level FlightAware ADS-B
Sat 12:59:56 AM 43.7240 -69.3810 48° Northeast 531 611 31,000  Level FlightAware ADS-B
Sat 01:00:34 AM 43.7770 -69.2990 48° Northeast 531 611 31,000  Level FlightAware ADS-B
Sat 01:01:11 AM 43.8290 -69.2190 48° Northeast 531 611 31,000  Level FlightAware ADS-B
Sat 01:01:48 AM 43.8800 -69.1400 48° Northeast 531 611 31,000  Level FlightAware ADS-B
Sat 01:02:24 AM 43.9310 -69.0620 48° Northeast 531 611 31,000  Level FlightAware ADS-B
Sat 01:03:15 AM 44.0430 -68.8740 50° Northeast 524 603 31,000  Level FlightAware ADS-B
Sat 01:03:47 AM 44.1030 -68.7780 49° Northeast 525 604 31,000  Level FlightAware ADS-B
Sat 01:04:23 AM 44.1590 -68.6880 49° Northeast 524 603 31,000  Level FlightAware ADS-B
Sat 01:04:57 AM 44.2100 -68.6050 49° Northeast 523 602 31,000  Level FlightAware ADS-B
Sat 01:05:20 AM 44.2480 -68.5440 49° Northeast 523 602 31,000  Level FlightAware ADS-B
Sat 01:05:59 AM 44.3110 -68.4420 49° Northeast 522 601 31,000  Level FlightAware ADS-B
Sat 01:06:35 AM 44.3680 -68.3490 49° Northeast 521 600 31,000  Level FlightAware ADS-B
Sat 01:07:05 AM 44.4160 -68.2720 49° Northeast 522 601 31,000  Level FlightAware ADS-B
Sat 01:07:47 AM 44.4810 -68.1640 50° Northeast 522 601 31,000  Level FlightAware ADS-B
Sat 01:08:19 AM 44.5310 -68.0840 49° Northeast 522 601 31,000  Level FlightAware ADS-B
Sat 01:08:56 AM 44.5910 -67.9850 50° Northeast 522 601 31,000  Level FlightAware ADS-B
Sat 01:09:29 AM 44.6410 -67.9030 49° Northeast 521 600 31,000  Level FlightAware ADS-B
Sat 01:10:05 AM 44.6970 -67.8100 50° Northeast 520 598 31,000  Level FlightAware ADS-B
Sat 01:10:41 AM 44.7540 -67.7160 49° Northeast 520 598 31,000  Level FlightAware ADS-B
Sat 01:11:16 AM 44.8080 -67.6250 50° Northeast 523 602 31,000  Level FlightAware ADS-B
Sat 01:11:47 AM 44.8560 -67.5450 50° Northeast 525 604 31,000  Level FlightAware ADS-B
Sat 01:12:22 AM 44.9120 -67.4510 50° Northeast 526 605 31,000  Level FlightAware ADS-B
Sat 01:12:57 AM 44.9650 -67.3610 50° Northeast 528 608 31,000  Level FlightAware ADS-B
Sat 01:13:37 AM 45.0290 -67.2540 50° Northeast 528 608 31,000  Level FlightAware ADS-B
Sat 01:14:07 AM 45.0750 -67.1760 50° Northeast 531 611 31,000  Level FlightAware ADS-B
Sat 01:14:47 AM 45.1390 -67.0680 50° Northeast 531 611 31,000  Level FlightAware ADS-B
Sat 01:15:22 AM 45.1930 -66.9760 50° Northeast 531 611 31,000  Level FlightAware ADS-B
Sat 01:15:53 AM 45.2410 -66.8940 50° Northeast 532 612 31,000  Level FlightAware ADS-B
Sat 01:16:28 AM 45.2960 -66.8000 50° Northeast 531 611 31,000  Level FlightAware ADS-B
Sat 01:17:02 AM 45.3500 -66.7070 50° Northeast 531 611 31,000  Level FlightAware ADS-B
Sat 01:17:39 AM 45.4060 -66.6100 51° Northeast 530 610 31,000  Level FlightAware ADS-B
Sat 01:18:17 AM 45.4680 -66.5030 50° Northeast 525 604 31,000  Level FlightAware ADS-B
Sat 01:18:48 AM 45.5140 -66.4200 52° Northeast 525 604 31,000  Level FlightAware ADS-B
Sat 01:19:22 AM 45.5670 -66.3270 51° Northeast 526 605 31,000  Level FlightAware ADS-B
Sat 01:19:57 AM 45.6220 -66.2290 51° Northeast 527 606 31,000  Level FlightAware ADS-B
Sat 01:20:38 AM 45.6830 -66.1210 51° Northeast 527 606 31,000  Level FlightAware ADS-B
Sat 01:21:08 AM 45.7300 -66.0380 51° Northeast 527 606 31,000  Level FlightAware ADS-B
Sat 01:21:52 AM 45.7980 -65.9160 51° Northeast 529 609 31,000  Level FlightAware ADS-B
Sat 01:22:22 AM 45.8450 -65.8310 52° Northeast 530 610 31,000  Level FlightAware ADS-B
Sat 01:23:11 AM 45.9080 -65.7150 52° Northeast 530 610 31,000  Level FlightAware ADS-B
Sat 01:23:51 AM 45.9600 -65.6210 51° Northeast 530 610 31,000  Level FlightAware ADS-B
Sat 01:24:28 AM 46.0070 -65.5330 52° Northeast 530 610 31,000  Level FlightAware ADS-B
Sat 01:25:04 AM 46.0530 -65.4480 52° Northeast 530 610 31,000  Level FlightAware ADS-B
Sat 01:25:40 AM 46.0990 -65.3630 52° Northeast 530 610 31,000  Level FlightAware ADS-B
Sat 01:26:18 AM 46.1480 -65.2730 52° Northeast 530 610 31,000  Level FlightAware ADS-B
Sat 01:26:54 AM 46.1940 -65.1870 52° Northeast 530 610 31,000  Level FlightAware ADS-B
Sat 01:27:32 AM 46.2430 -65.0970 52° Northeast 530 610 31,000  Level FlightAware ADS-B
Sat 01:28:09 AM 46.2900 -65.0090 52° Northeast 530 610 31,000  Level FlightAware ADS-B
Sat 01:28:56 AM 46.3510 -64.8980 51° Northeast 530 610 31,000  Level FlightAware ADS-B
Sat 01:29:31 AM 46.3960 -64.8140 52° Northeast 530 610 31,000  Level FlightAware ADS-B
Sat 01:30:10 AM 46.4460 -64.7210 52° Northeast 530 610 31,000  Level FlightAware ADS-B
Sat 01:30:48 AM 46.4940 -64.6310 52° Northeast 530 610 31,000  Level FlightAware ADS-B
Sat 01:31:25 AM 46.5420 -64.5420 52° Northeast 530 610 31,000  Level FlightAware ADS-B
Sat 01:32:04 AM 46.5920 -64.4490 52° Northeast 530 610 31,000  Level FlightAware ADS-B
Sat 01:32:39 AM 46.7833 -64.0833 52° Northeast 530 610 31,000  Level Moncton Center
Sat 01:33:39 AM 46.8667 -63.8833 59° Northeast 530 610 31,000  Level Moncton Center
Sat 01:34:39 AM 46.9667 -63.7333 46° Northeast 530 610 31,000  Level Moncton Center
Sat 01:35:39 AM 47.0500 -63.5667 54° Northeast 530 610 31,000  Level Moncton Center
Sat 01:36:39 AM 47.1333 -63.3667 58° Northeast 530 610 31,000  Level Moncton Center
Sat 01:37:39 AM 47.2333 -63.2167 45° Northeast 530 610 31,000  Level Moncton Center
Sat 01:38:39 AM 47.3000 -63.0167 64° Northeast 530 610 31,000  Level Moncton Center
Sat 01:39:39 AM 47.4000 -62.8667 45° Northeast 530 610 31,000  Level Moncton Center
Sat 01:40:39 AM 47.4833 -62.6667 58° Northeast 530 610 31,000  Level Moncton Center
Sat 01:41:39 AM 47.5667 -62.5167 50° Northeast 530 610 31,000  Level Moncton Center
Sat 01:42:39 AM 47.6667 -62.3333 51° Northeast 530 610 31,000  Level Moncton Center
Sat 01:43:39 AM 47.7500 -62.1500 56° Northeast 530 610 31,000  Level Moncton Center
Sat 01:44:39 AM 47.8500 -61.9833 48° Northeast 530 610 31,000  Level Moncton Center
Sat 01:45:39 AM 47.9167 -61.7667 65° Northeast 530 610 31,000  Level Moncton Center
Sat 01:46:39 AM 48.0167 -61.6167 45° Northeast 530 610 31,000  Level Moncton Center
Sat 01:47:39 AM 48.1000 -61.4333 56° Northeast 530 610 31,000  Level Moncton Center
Sat 01:48:28 AM 48.1667 -61.2833 56° Northeast 530 610 31,000  Level Gander Center
Sat 01:49:28 AM 48.2500 -61.1000 56° Northeast 530 610 31,000  Level Gander Center
Sat 01:50:28 AM 48.3333 -60.9333 53° Northeast 520 598 31,000  Level Gander Center
Sat 01:51:28 AM 48.4167 -60.7500 56° Northeast 520 598 31,000  Level Gander Center
Sat 01:52:28 AM 48.5000 -60.5833 53° Northeast 520 598 31,000  Level Gander Center
Sat 01:53:28 AM 48.6000 -60.4000 50° Northeast 520 598 31,000  Level Gander Center
Sat 01:59:06 AM 49.0600 -59.4090 50° Northeast 514 592 31,000  Level FlightAware ADS-B
Sat 01:59:41 AM 49.1060 -59.3040 56° Northeast 513 590 31,000  Level FlightAware ADS-B
Sat 02:00:17 AM 49.1520 -59.2000 56° Northeast 513 590 31,000  Level FlightAware ADS-B
Sat 02:00:56 AM 49.2040 -59.0820 56° Northeast 514 592 31,000  Level FlightAware ADS-B
Sat 02:01:36 AM 49.2590 -58.9560 56° Northeast 516 594 31,000  Level FlightAware ADS-B
Sat 02:02:05 AM 49.2990 -58.8650 56° Northeast 516 594 31,000  Level FlightAware ADS-B
Sat 02:02:40 AM 49.3460 -58.7580 56° Northeast 517 595 31,000  Level FlightAware ADS-B
Sat 02:03:16 AM 49.3930 -58.6510 56° Northeast 518 596 31,000  Level FlightAware ADS-B
Sat 02:03:53 AM 49.4390 -58.5430 57° Northeast 518 596 31,000  Level FlightAware ADS-B
Sat 02:04:25 AM 49.4850 -58.4360 56° Northeast 517 595 31,000  Level FlightAware ADS-B
Sat 02:05:15 AM 49.5460 -58.2960 56° Northeast 517 595 31,000  Level FlightAware ADS-B
Sat 02:05:58 AM 49.5950 -58.1840 56° Northeast 517 595 31,000  Level FlightAware ADS-B
Sat 02:06:32 AM 49.6340 -58.0960 56° Northeast 517 595 31,000  Level FlightAware ADS-B
Sat 02:07:11 AM 49.6890 -57.9170 65° Northeast 519 597 31,000  Level FlightAware ADS-B
Sat 02:07:45 AM 49.7290 -57.8010 62° Northeast 519 597 31,000  Level FlightAware ADS-B
Sat 02:08:16 AM 49.7620 -57.7030 62° Northeast 519 597 31,000  Level FlightAware ADS-B
Sat 02:09:05 AM 49.8070 -57.5710 62° Northeast 517 595 31,000  Level FlightAware ADS-B
Sat 02:09:46 AM 49.8610 -57.4100 62° Northeast 515 593 31,000  Level FlightAware ADS-B
Sat 02:10:21 AM 49.9000 -57.2960 62° Northeast 513 590 31,000  Level FlightAware ADS-B
Sat 02:10:51 AM 49.9330 -57.1950 63° Northeast 512 589 31,000  Level FlightAware ADS-B
Sat 02:11:26 AM 49.9710 -57.0810 63° Northeast 511 588 31,000  Level FlightAware ADS-B
Sat 02:12:02 AM 50.0040 -56.9830 62° Northeast 512 589 31,000  Level FlightAware ADS-B
Sat 02:12:38 AM 50.0460 -56.8540 63° Northeast 518 596 31,000  Level FlightAware ADS-B
Sat 02:13:10 AM 50.0850 -56.7360 63° Northeast 518 596 31,000  Level FlightAware ADS-B
Sat 02:13:46 AM 50.1230 -56.6190 63° Northeast 516 594 31,000  Level FlightAware ADS-B
Sat 02:14:20 AM 50.1610 -56.5030 63° Northeast 513 590 31,000  Level FlightAware ADS-B
Sat 02:15:01 AM 50.2040 -56.3740 62° Northeast 512 589 31,000  Level FlightAware ADS-B
Sat 02:15:33 AM 50.2360 -56.2750 63° Northeast 512 589 31,000  Level FlightAware ADS-B
Sat 02:16:10 AM 50.2800 -56.1400 63° Northeast 515 593 31,000  Level FlightAware ADS-B
Sat 02:16:42 AM 50.3120 -56.0410 63° Northeast 516 594 31,000  Level FlightAware ADS-B
Sat 02:17:16 AM 50.3490 -55.9250 63° Northeast 519 597 31,000  Level FlightAware ADS-B
Sat 02:17:50 AM 50.3860 -55.8110 63° Northeast 520 598 31,000  Level FlightAware ADS-B
Sat 02:18:26 AM 50.4250 -55.6880 64° Northeast 523 602 31,000  Level FlightAware ADS-B
Sat 02:19:00 AM 50.4610 -55.5730 64° Northeast 525 604 31,000  Level FlightAware ADS-B
Sat 02:19:40 AM 50.5060 -55.4330 63° Northeast 526 605 31,000  Level FlightAware ADS-B
Sat 02:20:11 AM 50.5380 -55.3290 64° Northeast 528 608 31,000  Level FlightAware ADS-B
Sat 02:20:46 AM 50.5760 -55.2070 64° Northeast 532 612 31,000  Level FlightAware ADS-B
Sat 02:21:20 AM 50.6130 -55.0860 64° Northeast 534 615 31,000  Level FlightAware ADS-B
Sat 02:21:56 AM 50.6500 -54.9650 64° Northeast 536 617 31,000  Level FlightAware ADS-B
Sat 02:22:35 AM 50.6860 -54.8500 64° Northeast 539 620 31,000  Level FlightAware ADS-B
Sat 02:23:29 AM 50.7440 -54.6600 64° Northeast 538 619 31,000  Level FlightAware ADS-B
Sat 02:24:20 AM 50.8020 -54.4650 65° Northeast 540 621 31,000  Level FlightAware ADS-B
Sat 02:25:16 AM 50.8620 -54.2650 65° Northeast 544 626 31,000  Level FlightAware ADS-B
Sat 02:26:06 AM 50.9140 -54.0890 65° Northeast 546 628 31,000  Level FlightAware ADS-B
Sat 02:26:32 AM 50.9430 -53.9890 65° Northeast 547 629 31,000  Level FlightAware ADS-B
Sat 02:27:23 AM 50.9930 -53.8180 65° Northeast 546 628 31,000  Level FlightAware ADS-B
Sat 02:28:03 AM 51.0310 -53.6860 65° Northeast 546 628 31,000 191 Level FlightAware ADS-B
Sat 02:28:57 AM 51.0970 -53.4580 65° Northeast 495 570 31,300 253 Climbing FlightAware ADS-B
Sat 02:29:38 AM 51.1390 -53.3140 65° Northeast 553 636 31,400 1,319 Climbing FlightAware ADS-B
Sat 02:30:28 AM 51.1667 -53.0333 65° Northeast 540 621 33,300 1,527 Climbing Gander Center
Sat 02:31:28 AM 51.2333 -52.8333 62° Northeast 540 621 34,200 850 Climbing Gander Center
Sat 02:32:28 AM 51.2833 -52.6000 71° East 540 621 35,000 400 Climbing Gander Center
Sat 02:33:28 AM 51.3500 -52.3833 64° Northeast 550 633 35,000  Level Gander Center
Sat 02:34:28 AM 51.4167 -52.1500 65° Northeast 540 621 35,000  Level Gander Center
Sat 02:35:28 AM 51.4667 -51.9167 71° East 560 644 35,000  Level Gander Center
Sat 02:36:28 AM 51.5333 -51.7167 62° Northeast 540 621 35,000  Level Gander Center
Sat 02:37:28 AM 51.6000 -51.4667 67° East 550 633 35,000  Level Gander Center
Sat 02:38:28 AM 51.6500 -51.2667 68° East 540 621 35,000  Level Gander Center
Sat 02:39:28 AM 51.7167 -51.0333 65° Northeast 550 633 35,000  Level Gander Center
Sat 02:40:28 AM 51.7833 -50.8000 65° Northeast 550 633 35,000  Level Gander Center
Sat 02:41:28 AM 51.8167 -50.5667 77° East 550 633 35,000  Level Gander Center
Sat 02:42:28 AM 51.8833 -50.3333 65° Northeast 560 644 35,000  Level Gander Center
Sat 02:44:00 AM 51.9585 -50.1190 60° Northeast  Level FlightAware Approximate
Sat 02:46:00 AM 52.0000 -50.0000 77° East 554 638 35,000  Level ETMS Enhanced Traffic Management System
Sat 02:51:00 AM 52.1992 -48.5198 78° East  Level FlightAware Approximate
Sat 02:52:00 AM 52.2980 -47.7925 78° East 554 638 35,000  Level FlightAware Transoceanic
Sat 02:53:00 AM 52.3285 -47.5454 79° East 554 638 35,000  Level FlightAware Transoceanic
Sat 02:54:00 AM 52.3586 -47.2980 79° East 554 638 35,000  Level FlightAware Transoceanic
Sat 02:55:00 AM 52.3881 -47.0503 79° East 554 638 35,000  Level FlightAware Transoceanic
Sat 02:56:00 AM 52.4171 -46.8022 79° East 554 638 35,000  Level FlightAware Transoceanic
Sat 02:57:00 AM 52.4455 -46.5538 79° East 554 638 35,000  Level FlightAware Transoceanic
Sat 02:58:00 AM 52.4735 -46.3051 80° East 554 638 35,000  Level FlightAware Transoceanic
Sat 02:59:00 AM 52.5009 -46.0561 80° East 554 638 35,000  Level FlightAware Transoceanic
Sat 03:00:00 AM 52.5279 -45.8068 80° East 554 638 35,000  Level FlightAware Transoceanic
Sat 03:01:00 AM 52.5542 -45.5572 80° East 554 638 35,000  Level FlightAware Transoceanic
Sat 03:02:00 AM 52.5801 -45.3072 80° East 554 638 35,000  Level FlightAware Transoceanic
Sat 03:03:00 AM 52.6054 -45.0570 81° East 554 638 35,000  Level FlightAware Transoceanic
Sat 03:04:00 AM 52.6302 -44.8065 81° East 554 638 35,000  Level FlightAware Transoceanic
Sat 03:05:00 AM 52.6545 -44.5557 81° East 554 638 35,000  Level FlightAware Transoceanic
Sat 03:06:00 AM 52.6783 -44.3047 81° East 554 638 35,000  Level FlightAware Transoceanic
Sat 03:07:00 AM 52.7015 -44.0533 81° East 554 638 35,000  Level FlightAware Transoceanic
Sat 03:08:00 AM 52.7242 -43.8017 82° East 554 638 35,000  Level FlightAware Transoceanic
Sat 03:09:00 AM 52.7463 -43.5499 82° East 554 638 35,000  Level FlightAware Transoceanic
Sat 03:10:00 AM 52.7679 -43.2978 82° East 554 638 35,000  Level FlightAware Transoceanic
Sat 03:11:00 AM 52.7890 -43.0454 82° East 554 638 35,000  Level FlightAware Transoceanic
Sat 03:12:00 AM 52.8096 -42.7928 82° East 554 638 35,000  Level FlightAware Transoceanic
Sat 03:13:00 AM 52.8296 -42.5400 83° East 554 638 35,000  Level FlightAware Transoceanic
Sat 03:14:00 AM 52.8491 -42.2869 83° East 554 638 35,000  Level FlightAware Transoceanic
Sat 03:15:00 AM 52.8680 -42.0336 83° East 554 638 35,000  Level FlightAware Transoceanic
Sat 03:16:00 AM 52.8864 -41.7801 83° East 554 638 35,000  Level FlightAware Transoceanic
Sat 03:17:00 AM 52.9043 -41.5264 83° East 554 638 35,000  Level FlightAware Transoceanic
Sat 03:18:00 AM 52.9216 -41.2725 84° East 554 638 35,000  Level FlightAware Transoceanic
Sat 03:19:00 AM 52.9383 -41.0184 84° East 554 638 35,000  Level FlightAware Transoceanic
Sat 03:20:00 AM 52.9546 -40.7640 84° East 554 638 35,000  Level FlightAware Transoceanic
Sat 03:21:00 AM 52.9703 -40.5095 84° East 554 638 35,000  Level FlightAware Transoceanic
Sat 03:22:00 AM 52.9854 -40.2549 84° East 554 638 35,000  Level FlightAware Transoceanic
Sat 03:23:00 AM 52.9991 -40.0154 84° East  Level FlightAware Approximate
Sat 03:24:00 AM 53.0125 -39.7758 85° East  Level FlightAware Approximate
Sat 03:25:00 AM 53.0294 -39.7960 76° East  Level FlightAware Approximate
Sat 03:26:00 AM 53.0627 -39.5616 77° East  Level FlightAware Approximate
Sat 03:27:00 AM 53.0955 -39.3268 77° East  Level FlightAware Approximate
Sat 03:27:00 AM 53.0000 -40.0000 76° East 542 624 35,000  Level ETMS Enhanced Traffic Management System
Sat 03:28:00 AM 53.1278 -39.0916 77° East  Level FlightAware Approximate
Sat 03:29:00 AM 53.1596 -38.8566 77° East  Level FlightAware Approximate
Sat 03:30:00 AM 53.1910 -38.6211 77° East  Level FlightAware Approximate
Sat 03:31:00 AM 53.2219 -38.3854 78° East  Level FlightAware Approximate
Sat 03:32:00 AM 53.2524 -38.1493 78° East  Level FlightAware Approximate
Sat 03:33:00 AM 53.3277 -37.5471 78° East 542 624 35,000  Level FlightAware Transoceanic
Sat 03:34:00 AM 53.3577 -37.2998 79° East 542 624 35,000  Level FlightAware Transoceanic
Sat 03:35:00 AM 53.3872 -37.0521 79° East 542 624 35,000  Level FlightAware Transoceanic
Sat 03:36:00 AM 53.4161 -36.8041 79° East 542 624 35,000  Level FlightAware Transoceanic
Sat 03:37:00 AM 53.4446 -36.5558 79° East 542 624 35,000  Level FlightAware Transoceanic
Sat 03:38:00 AM 53.4725 -36.3071 79° East 542 624 35,000  Level FlightAware Transoceanic
Sat 03:39:00 AM 53.4999 -36.0582 80° East 542 624 35,000  Level FlightAware Transoceanic
Sat 03:40:00 AM 53.5268 -35.8089 80° East 542 624 35,000  Level FlightAware Transoceanic
Sat 03:41:00 AM 53.5532 -35.5593 80° East 542 624 35,000  Level FlightAware Transoceanic
Sat 03:42:00 AM 53.5790 -35.3093 80° East 542 624 35,000  Level FlightAware Transoceanic
Sat 03:43:00 AM 53.6044 -35.0591 80° East 542 624 35,000  Level FlightAware Transoceanic
Sat 03:44:00 AM 53.6292 -34.8086 81° East 542 624 35,000  Level FlightAware Transoceanic
Sat 03:45:00 AM 53.6535 -34.5578 81° East 542 624 35,000  Level FlightAware Transoceanic
Sat 03:46:00 AM 53.6772 -34.3067 81° East 542 624 35,000  Level FlightAware Transoceanic
Sat 03:47:00 AM 53.7005 -34.0553 81° East 542 624 35,000  Level FlightAware Transoceanic
Sat 03:48:00 AM 53.7232 -33.8037 81° East 542 624 35,000  Level FlightAware Transoceanic
Sat 03:49:00 AM 53.7454 -33.5518 82° East 542 624 35,000  Level FlightAware Transoceanic
Sat 03:50:00 AM 53.7670 -33.2996 82° East 542 624 35,000  Level FlightAware Transoceanic
Sat 03:51:00 AM 53.7882 -33.0471 82° East 542 624 35,000  Level FlightAware Transoceanic
Sat 03:52:00 AM 53.8087 -32.7944 82° East 542 624 35,000  Level FlightAware Transoceanic
Sat 03:53:00 AM 53.8288 -32.5415 82° East 542 624 35,000  Level FlightAware Transoceanic
Sat 03:54:00 AM 53.8483 -32.2883 83° East 542 624 35,000  Level FlightAware Transoceanic
Sat 03:55:00 AM 53.8673 -32.0349 83° East 542 624 35,000  Level FlightAware Transoceanic
Sat 03:56:00 AM 53.8858 -31.7813 83° East 542 624 35,000  Level FlightAware Transoceanic
Sat 03:57:00 AM 53.9037 -31.5274 83° East 542 624 35,000  Level FlightAware Transoceanic
Sat 03:58:00 AM 53.9211 -31.2734 83° East 542 624 35,000  Level FlightAware Transoceanic
Sat 03:59:00 AM 53.9380 -31.0191 84° East 542 624 35,000  Level FlightAware Transoceanic
Sat 04:00:00 AM 53.9543 -30.7646 84° East 542 624 35,000  Level FlightAware Transoceanic
Sat 04:01:00 AM 53.9701 -30.5099 84° East 542 624 35,000  Level FlightAware Transoceanic
Sat 04:02:00 AM 53.9853 -30.2551 84° East 542 624 35,000  Level FlightAware Transoceanic
Sat 04:03:00 AM 53.9994 -30.0103 84° East  Level FlightAware Approximate
Sat 04:04:00 AM 54.0131 -29.7655 84° East  Level FlightAware Approximate
Sat 04:05:00 AM 54.0091 -29.7754 86° East  Level FlightAware Approximate
Sat 04:06:00 AM 54.0186 -29.5299 86° East  Level FlightAware Approximate
Sat 04:06:00 AM 54.0000 -30.0000 86° East 528 608 35,000  Level ETMS Enhanced Traffic Management System
Sat 04:07:00 AM 54.0276 -29.2843 86° East  Level FlightAware Approximate
Sat 04:08:00 AM 54.0361 -29.0390 87° East  Level FlightAware Approximate
Sat 04:09:00 AM 54.0441 -28.7937 87° East  Level FlightAware Approximate
Sat 04:10:00 AM 54.0516 -28.5482 87° East  Level FlightAware Approximate
Sat 04:11:00 AM 54.0586 -28.3027 87° East  Level FlightAware Approximate
Sat 04:12:00 AM 54.0724 -27.7532 88° East 528 608 35,000  Level FlightAware Transoceanic
Sat 04:13:00 AM 54.0778 -27.5031 88° East 528 608 35,000  Level FlightAware Transoceanic
Sat 04:14:00 AM 54.0828 -27.2530 88° East 528 608 35,000  Level FlightAware Transoceanic
Sat 04:15:00 AM 54.0872 -27.0028 88° East 528 608 35,000  Level FlightAware Transoceanic
Sat 04:16:00 AM 54.0911 -26.7526 89° East 528 608 35,000  Level FlightAware Transoceanic
Sat 04:17:00 AM 54.0945 -26.5023 89° East 528 608 35,000  Level FlightAware Transoceanic
Sat 04:18:00 AM 54.0973 -26.2519 89° East 528 608 35,000  Level FlightAware Transoceanic
Sat 04:19:00 AM 54.0997 -26.0016 89° East 528 608 35,000  Level FlightAware Transoceanic
Sat 04:20:00 AM 54.1015 -25.7512 89° East 528 608 35,000  Level FlightAware Transoceanic
Sat 04:21:00 AM 54.1028 -25.5008 90° East 528 608 35,000  Level FlightAware Transoceanic
Sat 04:22:00 AM 54.1035 -25.2504 90° East 528 608 35,000  Level FlightAware Transoceanic
Sat 04:23:00 AM 54.1038 -25.0000 90° East 528 608 35,000  Level FlightAware Transoceanic
Sat 04:24:00 AM 54.1035 -24.7496 90° East 528 608 35,000  Level FlightAware Transoceanic
Sat 04:25:00 AM 54.1028 -24.4992 90° East 528 608 35,000  Level FlightAware Transoceanic
Sat 04:26:00 AM 54.1015 -24.2488 91° East 528 608 35,000  Level FlightAware Transoceanic
Sat 04:27:00 AM 54.0997 -23.9984 91° East 528 608 35,000  Level FlightAware Transoceanic
Sat 04:28:00 AM 54.0973 -23.7481 91° East 528 608 35,000  Level FlightAware Transoceanic
Sat 04:29:00 AM 54.0945 -23.4977 91° East 528 608 35,000  Level FlightAware Transoceanic
Sat 04:30:00 AM 54.0911 -23.2474 91° East 528 608 35,000  Level FlightAware Transoceanic
Sat 04:31:00 AM 54.0872 -22.9972 92° East 528 608 35,000  Level FlightAware Transoceanic
Sat 04:32:00 AM 54.0828 -22.7470 92° East 528 608 35,000  Level FlightAware Transoceanic
Sat 04:33:00 AM 54.0778 -22.4969 92° East 528 608 35,000  Level FlightAware Transoceanic
Sat 04:34:00 AM 54.0724 -22.2468 92° East 528 608 35,000  Level FlightAware Transoceanic
Sat 04:35:00 AM 54.0664 -21.9968 92° East 528 608 35,000  Level FlightAware Transoceanic
Sat 04:36:00 AM 54.0599 -21.7469 93° East 528 608 35,000  Level FlightAware Transoceanic
Sat 04:37:00 AM 54.0529 -21.4970 93° East 528 608 35,000  Level FlightAware Transoceanic
Sat 04:38:00 AM 54.0454 -21.2473 93° East 528 608 35,000  Level FlightAware Transoceanic
Sat 04:39:00 AM 54.0373 -20.9976 93° East 528 608 35,000  Level FlightAware Transoceanic
Sat 04:40:00 AM 54.0288 -20.7480 93° East 528 608 35,000  Level FlightAware Transoceanic
Sat 04:41:00 AM 54.0197 -20.4986 94° East 528 608 35,000  Level FlightAware Transoceanic
Sat 04:42:00 AM 54.0101 -20.2492 94° East 528 608 35,000  Level FlightAware Transoceanic
Sat 04:43:00 AM 54.0002 -20.0043 94° East  Level FlightAware Approximate
Sat 04:44:00 AM 53.9896 -19.7595 94° East  Level FlightAware Approximate
Sat 04:45:00 AM 53.9860 -19.7643 96° East  Level FlightAware Approximate
Sat 04:46:00 AM 53.9709 -19.5203 96° East  Level FlightAware Approximate
Sat 04:47:00 AM 53.9554 -19.2764 96° East  Level FlightAware Approximate
Sat 04:48:00 AM 53.9394 -19.0327 96° East  Level FlightAware Approximate
Sat 04:49:00 AM 53.9229 -18.7892 96° East  Level FlightAware Approximate
Sat 04:50:00 AM 53.9058 -18.5460 97° East  Level FlightAware Approximate
Sat 04:51:00 AM 53.8884 -18.3033 97° East  Level FlightAware Approximate
Sat 04:52:00 AM 53.8704 -18.0608 97° East  Level FlightAware Approximate
Sat 04:53:00 AM 53.8520 -17.8186 97° East  Level FlightAware Approximate
Sat 04:54:00 AM 53.8330 -17.5765 97° East  Level FlightAware Approximate
Sat 04:55:00 AM 53.8136 -17.3347 98° East  Level FlightAware Approximate
Sat 04:56:00 AM 53.7937 -17.0931 98° East  Level FlightAware Approximate
Sat 04:57:00 AM 53.7733 -16.8517 98° East  Level FlightAware Approximate
Sat 04:58:00 AM 53.7524 -16.6106 98° East  Level FlightAware Approximate
Sat 04:59:00 AM 53.7311 -16.3697 98° East  Level FlightAware Approximate
Sat 05:00:00 AM 53.7093 -16.1291 99° East  Level FlightAware Approximate
Sat 05:01:00 AM 53.6869 -15.8887 99° East  Level FlightAware Approximate
Sat 05:02:00 AM 53.6641 -15.6486 99° East  Level FlightAware Approximate
Sat 05:03:00 AM 53.6409 -15.4088 99° East  Level FlightAware Approximate
Sat 05:04:00 AM 53.6171 -15.1692 99° East  Level FlightAware Approximate
Sat 05:05:00 AM 53.5929 -14.9298 100° East  Level FlightAware Approximate
Sat 05:06:00 AM 53.5684 -14.6907 100° East  Level FlightAware Approximate
Sat 05:07:00 AM 53.5434 -14.4519 100° East  Level FlightAware Approximate
Sat 05:08:00 AM 53.5179 -14.2134 100° East  Level FlightAware Approximate
Sat 05:08:18 AM 53.9670 -14.2930 100° East 516 594 35,000  Level FlightAware ADS-B
Sat 05:09:00 AM 53.4920 -13.9751 100° East  Level FlightAware Approximate
Sat 05:09:03 AM 53.9330 -14.1190 108° East 516 594 35,000  Level FlightAware ADS-B
Sat 05:09:35 AM 53.9120 -14.0050 107° East 519 597 35,000  Level FlightAware ADS-B
Sat 05:10:10 AM 53.8880 -13.8630 106° East 516 594 35,000  Level FlightAware ADS-B
Sat 05:10:48 AM 53.8630 -13.7160 106° East 515 593 35,000 250 Level FlightAware ADS-B
Sat 05:10:58 AM 53.8550 -13.6690 106° East 519 597 35,200 985 Climbing FlightAware ADS-B
Sat 05:11:55 AM 53.8190 -13.4560 106° East 520 598 36,100 867 Climbing FlightAware ADS-B
Sat 05:12:28 AM 53.7960 -13.3220 106° East 524 603 36,500 618 Climbing FlightAware ADS-B
Sat 05:13:03 AM 53.7710 -13.1830 107° East 528 608 36,800 462 Climbing FlightAware ADS-B
Sat 05:13:33 AM 53.7510 -13.0680 106° East 526 605 37,000 171 Climbing FlightAware ADS-B
Sat 05:14:13 AM 53.7220 -12.9080 107° East 525 604 37,000  Level FlightAware ADS-B
Sat 05:14:49 AM 53.6970 -12.7670 107° East 521 600 37,000  Level FlightAware ADS-B
Sat 05:15:23 AM 53.6730 -12.6330 107° East 520 598 37,000  Level FlightAware ADS-B
Sat 05:15:58 AM 53.6480 -12.4980 107° East 518 596 37,000  Level FlightAware ADS-B
Sat 05:16:39 AM 53.6200 -12.3430 107° East 519 597 37,000  Level FlightAware ADS-B
Sat 05:17:18 AM 53.5920 -12.1860 107° East 518 596 37,000  Level FlightAware ADS-B
Sat 05:17:48 AM 53.5720 -12.0730 107° East 516 594 37,000  Level FlightAware ADS-B
Sat 05:18:28 AM 53.5440 -11.9170 107° East 517 595 37,000  Level FlightAware ADS-B
Sat 05:18:59 AM 53.5220 -11.7990 107° East 517 595 37,000  Level FlightAware ADS-B
Sat 05:19:33 AM 53.4970 -11.6660 107° East 519 597 37,000  Level FlightAware ADS-B
Sat 05:20:11 AM 53.4720 -11.5300 107° East 520 598 37,000  Level FlightAware ADS-B
Sat 05:20:48 AM 53.4440 -11.3770 107° East 522 601 37,000  Level FlightAware ADS-B
Sat 05:21:24 AM 53.4170 -11.2390 108° East 525 604 37,000  Level FlightAware ADS-B
Sat 05:21:53 AM 53.3950 -11.1250 108° East 525 604 37,000  Level FlightAware ADS-B
Sat 05:22:33 AM 53.3660 -10.9730 108° East 526 605 37,000  Level FlightAware ADS-B
Sat 05:23:04 AM 53.3430 -10.8560 108° East 526 605 37,000  Level FlightAware ADS-B
Sat 05:23:43 AM 53.3130 -10.6980 108° East 528 608 37,000  Level FlightAware ADS-B
Sat 05:24:18 AM 53.2860 -10.5640 109° East 528 608 37,000  Level FlightAware ADS-B
Sat 05:24:48 AM 53.2630 -10.4470 108° East 527 606 37,000  Level FlightAware ADS-B
Sat 05:25:28 AM 53.2320 -10.2930 109° East 527 606 37,000  Level FlightAware ADS-B
Sat 05:25:58 AM 53.2090 -10.1750 108° East 528 608 37,000  Level FlightAware ADS-B
Sat 05:26:33 AM 53.1820 -10.0410 109° East 528 608 37,000  Level FlightAware ADS-B
Sat 05:27:08 AM 53.1530 -9.9060 110° East 529 609 37,000  Level FlightAware ADS-B
Sat 05:27:48 AM 53.1220 -9.7520 108° East 533 613 37,000  Level FlightAware ADS-B
Sat 05:28:23 AM 53.0920 -9.6150 110° East 535 616 37,000  Level FlightAware ADS-B
Sat 05:28:53 AM 53.0690 -9.5030 109° East 536 617 37,000  Level FlightAware ADS-B
Sat 05:29:33 AM 53.0340 -9.3430 110° East 536 617 37,000  Level FlightAware ADS-B
Sat 05:30:03 AM 53.0100 -9.2290 109° East 536 617 37,000  Level FlightAware ADS-B
Sat 05:30:38 AM 52.9800 -9.0920 110° East 534 615 37,000  Level FlightAware ADS-B
Sat 05:31:08 AM 52.9323 -8.9817 110° East 490 564 37,000  Level FlightAware UK
Sat 05:31:13 AM 52.9510 -8.9600 110° East 536 617 37,000  Level FlightAware ADS-B
Sat 05:31:53 AM 52.9170 -8.8060 110° East 537 618 37,000  Level FlightAware ADS-B
Sat 05:32:23 AM 52.8920 -8.6880 109° East 538 619 37,000  Level FlightAware ADS-B
Sat 05:33:03 AM 52.8590 -8.5300 109° East 538 619 37,000  Level FlightAware ADS-B
Sat 05:33:33 AM 52.8340 -8.4180 110° East 538 619 37,000  Level FlightAware ADS-B
Sat 05:34:08 AM 52.7845 -8.2833 110° East 494 568 37,000  Level FlightAware UK
Sat 05:34:08 AM 52.8040 -8.2790 110° East 535 616 37,000  Level FlightAware ADS-B
Sat 05:34:38 AM 52.7592 -8.1676 110° East 492 566 37,000  Level FlightAware UK
Sat 05:34:43 AM 52.7740 -8.1430 110° East 534 615 37,000  Level FlightAware ADS-B
Sat 05:35:18 AM 52.7440 -8.0100 110° East 535 616 37,000  Level FlightAware ADS-B
Sat 05:35:58 AM 52.7090 -7.8590 111° Southeast 539 620 37,000  Level FlightAware ADS-B
Sat 05:36:33 AM 52.6770 -7.7220 111° Southeast 540 621 37,000  Level FlightAware ADS-B
Sat 05:37:03 AM 52.6510 -7.6080 111° Southeast 541 623 37,000  Level FlightAware ADS-B
Sat 05:37:08 AM 52.6286 -7.5922 111° Southeast 490 564 37,000  Level FlightAware UK
Sat 05:37:39 AM 52.6190 -7.4710 111° Southeast 541 623 37,000  Level FlightAware ADS-B
Sat 05:38:14 AM 52.5696 -7.3392 111° Southeast 490 564 37,000  Level FlightAware UK
Sat 05:38:18 AM 52.5830 -7.3190 111° Southeast 542 624 37,000  Level FlightAware ADS-B
Sat 05:38:52 AM 52.5530 -7.1970 112° Southeast 542 624 37,000  Level FlightAware ADS-B
Sat 05:39:25 AM 52.5210 -7.0620 111° Southeast 541 623 37,000  Level FlightAware ADS-B
Sat 05:39:59 AM 52.4910 -6.9360 111° Southeast 541 623 37,000  Level FlightAware ADS-B
Sat 05:40:39 AM 52.4530 -6.7820 112° Southeast 540 621 37,000  Level FlightAware ADS-B
Sat 05:41:11 AM 52.4220 -6.6580 112° Southeast 541 623 37,000  Level FlightAware ADS-B
Sat 05:41:43 AM 52.3930 -6.5360 112° Southeast 540 621 37,000  Level FlightAware ADS-B
Sat 05:41:45 AM 52.3785 -6.5379 112° Southeast 492 566 37,000  Level FlightAware UK
Sat 05:42:21 AM 52.3451 -6.4019 112° Southeast 498 573 37,000  Level FlightAware UK
Sat 05:42:21 AM 52.3580 -6.3970 112° Southeast 539 620 37,000  Level FlightAware ADS-B
Sat 05:42:51 AM 52.3172 -6.2889 112° Southeast 496 571 37,000  Level FlightAware UK
Sat 05:42:56 AM 52.3260 -6.2670 112° Southeast 538 619 37,000  Level FlightAware ADS-B
Sat 05:43:32 AM 52.2910 -6.1310 113° Southeast 537 618 37,000  Level FlightAware ADS-B
Sat 05:44:07 AM 52.2590 -6.0050 112° Southeast 535 616 37,000  Level FlightAware ADS-B
Sat 05:44:48 AM 52.2190 -5.8470 112° Southeast 535 616 37,000  Level FlightAware ADS-B
Sat 05:44:51 AM 52.2053 -5.8390 112° Southeast 490 564 37,000  Level FlightAware UK
Sat 05:45:21 AM 52.1772 -5.7274 112° Southeast 484 557 37,000  Level FlightAware UK
Sat 05:45:25 AM 52.1830 -5.7060 112° Southeast 536 617 37,000  Level FlightAware ADS-B
Sat 05:45:58 AM 52.1510 -5.5840 113° Southeast 539 620 37,000  Level FlightAware ADS-B
Sat 05:46:32 AM 52.1180 -5.4550 113° Southeast 539 620 37,000  Level FlightAware ADS-B
Sat 05:47:08 AM 52.0820 -5.3190 113° Southeast 538 619 37,000  Level FlightAware ADS-B
Sat 05:47:45 AM 52.0470 -5.1880 113° Southeast 539 620 37,000  Level FlightAware ADS-B
Sat 05:48:16 AM 52.0180 -5.0760 113° Southeast 540 621 37,000  Level FlightAware ADS-B
Sat 05:48:55 AM 51.9900 -4.9230 106° East 542 624 37,000  Level FlightAware ADS-B
Sat 05:49:29 AM 51.9730 -4.7890 102° East 544 626 37,000  Level FlightAware ADS-B
Sat 05:50:01 AM 51.9570 -4.6580 101° East 546 628 37,000  Level FlightAware ADS-B
Sat 05:50:37 AM 51.9390 -4.5070 101° East 547 629 37,000  Level FlightAware ADS-B
Sat 05:51:14 AM 51.9210 -4.3590 101° East 547 629 37,000  Level FlightAware ADS-B
Sat 05:51:50 AM 51.9030 -4.2170 102° East 548 631 37,000  Level FlightAware ADS-B
Sat 05:52:23 AM 51.8860 -4.0840 102° East 549 632 37,000  Level FlightAware ADS-B
Sat 05:52:59 AM 51.8670 -3.9380 102° East 550 633 37,000  Level FlightAware ADS-B
Sat 05:53:25 AM 51.8536 -3.8313 101° East 551 634 37,000  Level FlightAware ADS-B
Sat 05:53:59 AM 51.8360 -3.6948 102° East 552 635 37,000  Level FlightAware ADS-B
Sat 05:54:30 AM 51.8198 -3.5714 102° East 551 634 37,000  Level FlightAware ADS-B
Sat 05:55:04 AM 51.8020 -3.4348 102° East 551 634 37,000  Level FlightAware ADS-B
Sat 05:55:34 AM 51.7855 -3.3110 102° East 550 633 37,000  Level FlightAware ADS-B
Sat 05:56:05 AM 51.7692 -3.1875 102° East 550 633 37,000  Level FlightAware ADS-B
Sat 05:56:38 AM 51.7516 -3.0566 102° East 550 633 37,000  Level FlightAware ADS-B
Sat 05:57:11 AM 51.7338 -2.9246 102° East 551 634 37,000  Level FlightAware ADS-B
Sat 05:57:41 AM 51.7174 -2.8043 102° East 551 634 37,000  Level FlightAware ADS-B
Sat 05:58:13 AM 51.7001 -2.6776 102° East 553 636 37,000  Level FlightAware ADS-B
Sat 05:58:44 AM 51.6870 -2.5495 99° East 553 636 37,000  Level FlightAware ADS-B
Sat 05:59:15 AM 51.6765 -2.4222 98° East 554 638 37,000  Level FlightAware ADS-B
Sat 05:59:46 AM 51.6657 -2.2963 98° East 554 638 37,000  Level FlightAware ADS-B
Sat 06:00:20 AM 51.6535 -2.1591 98° East 555 639 37,000  Level FlightAware ADS-B
Sat 06:00:53 AM 51.6411 -2.0262 98° East 554 638 37,000  Level FlightAware ADS-B
Sat 06:01:23 AM 51.6291 -1.9010 99° East 554 638 37,000  Level FlightAware ADS-B
Sat 06:01:55 AM 51.6166 -1.7738 99° East 555 639 37,000  Level FlightAware ADS-B
Sat 06:02:26 AM 51.6039 -1.6452 99° East 555 639 37,000  Level FlightAware ADS-B
Sat 06:02:57 AM 51.5916 -1.5217 99° East 555 639 37,000  Level FlightAware ADS-B
Sat 06:03:27 AM 51.5790 -1.3972 99° East 555 639 37,000  Level FlightAware ADS-B
Sat 06:03:59 AM 51.5658 -1.2682 99° East 555 639 37,000  Level FlightAware ADS-B
Sat 06:04:29 AM 51.5531 -1.1447 99° East 555 639 37,000  Level FlightAware ADS-B
Sat 06:05:00 AM 51.5402 -1.0212 99° East 555 639 37,000  Level FlightAware ADS-B
Sat 06:05:33 AM 51.5259 -0.8865 100° East 555 639 37,000  Level FlightAware ADS-B
Sat 06:06:03 AM 51.5131 -0.7646 100° East 555 639 37,000  Level FlightAware ADS-B
Sat 06:06:34 AM 51.4997 -0.6396 100° East 555 639 37,000  Level FlightAware ADS-B
Sat 06:07:06 AM 51.4858 -0.5091 100° East 554 638 37,000  Level FlightAware ADS-B
Sat 06:07:37 AM 51.4724 -0.3853 100° East 555 639 37,000  Level FlightAware ADS-B
Sat 06:08:07 AM 51.4590 -0.2623 100° East 555 639 37,000  Level FlightAware ADS-B
Sat 06:08:38 AM 51.4456 -0.1399 100° East 555 639 37,000  Level FlightAware ADS-B
Sat 06:09:12 AM 51.4306 -0.0026 100° East 555 639 37,000  Level FlightAware ADS-B
Sat 06:09:42 AM 51.4166 0.1221 100° East 556 640 37,000  Level FlightAware ADS-B
Sat 06:10:13 AM 51.4027 0.2441 100° East 556 640 37,000  Level FlightAware ADS-B
Sat 06:10:45 AM 51.3874 0.3748 101° East 555 639 37,000  Level FlightAware ADS-B
Sat 06:11:16 AM 51.3727 0.5003 101° East 555 639 37,000  Level FlightAware ADS-B
Sat 06:11:51 AM 51.3562 0.6395 101° East 555 639 37,000  Level FlightAware ADS-B
Sat 06:12:21 AM 51.3416 0.7610 101° East 554 638 37,000  Level FlightAware ADS-B
Sat 06:12:52 AM 51.3266 0.8847 101° East 553 636 37,000  Level FlightAware ADS-B
Sat 06:13:22 AM 51.3121 1.0056 101° East 552 635 37,000  Level FlightAware ADS-B
Sat 06:13:53 AM 51.2970 1.1278 101° East 551 634 37,000  Level FlightAware ADS-B
Sat 06:14:40 AM 51.2740 1.3120 101° East 552 635 37,000  Level FlightAware ADS-B
Sat 06:14:55 AM 51.2666 1.3732 101° East 553 636 37,000  Level FlightAware ADS-B
Sat 06:15:31 AM 51.2388 1.5171 101° East 492 566 37,000  Level FlightAware UK
Sat 06:15:50 AM 51.2270 1.5780 101° East 549 632 37,000  Level FlightAware ADS-B
Sat 06:16:22 AM 51.1920 1.6990 115° Southeast 547 629 37,000  Level FlightAware ADS-B
Sat 06:16:57 AM 51.1560 1.8250 114° Southeast 547 629 37,000  Level FlightAware ADS-B
Sat 06:17:35 AM 51.1170 1.9630 114° Southeast 548 631 37,000  Level FlightAware ADS-B
Sat 06:17:48 AM 51.0998 2.0201 116° Southeast 549 632 37,000  Level FlightAware ADS-B
Sat 06:18:21 AM 51.0645 2.1414 115° Southeast 548 631 37,000  Level FlightAware ADS-B
Sat 06:18:55 AM 51.0222 2.2658 115° Southeast 494 568 37,000  Level FlightAware UK
Sat 06:19:21 AM 51.0020 2.3530 115° Southeast 548 631 37,000  Level FlightAware ADS-B
Sat 06:19:30 AM 50.9903 2.3934 115° Southeast 549 632 37,000  Level FlightAware ADS-B
Sat 06:20:35 AM 50.9230 2.6220 115° Southeast 550 633 37,000  Level FlightAware ADS-B
Sat 06:21:13 AM 50.8810 2.7620 115° Southeast 551 634 37,000  Level FlightAware ADS-B
Sat 06:21:45 AM 50.8470 2.8760 115° Southeast 554 638 37,000  Level FlightAware ADS-B
Sat 06:22:22 AM 50.8050 3.0140 116° Southeast 555 639 37,000  Level FlightAware ADS-B
Sat 06:22:56 AM 50.7670 3.1380 116° Southeast 555 639 37,000  Level FlightAware ADS-B
Sat 06:23:30 AM 50.7300 3.2610 115° Southeast 556 640 37,000  Level FlightAware ADS-B
Sat 06:24:07 AM 50.6870 3.3990 116° Southeast 556 640 37,000  Level FlightAware ADS-B
Sat 06:24:41 AM 50.6500 3.5190 116° Southeast 556 640 37,000  Level FlightAware ADS-B
Sat 06:25:24 AM 50.6040 3.6670 116° Southeast 555 639 37,000  Level FlightAware ADS-B
Sat 06:25:57 AM 50.5640 3.7950 116° Southeast 555 639 37,000  Level FlightAware ADS-B
Sat 06:26:33 AM 50.5230 3.9280 116° Southeast 554 638 37,000  Level FlightAware ADS-B
Sat 06:27:09 AM 50.4850 4.0490 116° Southeast 553 636 37,000  Level FlightAware ADS-B
Sat 06:27:54 AM 50.4310 4.2190 116° Southeast 552 635 37,000  Level FlightAware ADS-B
Sat 06:28:26 AM 50.3940 4.3360 116° Southeast 552 635 37,000  Level FlightAware ADS-B
Sat 06:29:00 AM 50.3550 4.4580 117° Southeast 553 636 37,000  Level FlightAware ADS-B
Sat 06:29:32 AM 50.3200 4.5660 117° Southeast 552 635 37,000  Level FlightAware ADS-B
Sat 06:29:38 AM 50.2951 4.5864 117° Southeast 1 1 37,000  Level FlightAware UK
Sat 06:30:10 AM 50.2760 4.7030 117° Southeast 552 635 37,000  Level FlightAware ADS-B
Sat 06:30:48 AM 50.2310 4.8450 116° Southeast 550 633 37,000  Level FlightAware ADS-B
Sat 06:31:17 AM 50.1990 4.9460 116° Southeast 550 633 37,000  Level FlightAware ADS-B
Sat 06:31:54 AM 50.1560 5.0760 117° Southeast 549 632 37,000  Level FlightAware ADS-B
Sat 06:32:29 AM 50.1150 5.2020 117° Southeast 548 631 37,000  Level FlightAware ADS-B
Sat 06:33:07 AM 50.0740 5.3230 118° Southeast 546 628 37,000  Level FlightAware ADS-B
Sat 06:33:43 AM 50.0290 5.4580 117° Southeast 546 628 37,000  Level FlightAware ADS-B
Sat 06:34:18 AM 49.9890 5.5780 117° Southeast 545 627 37,000  Level FlightAware ADS-B
Sat 06:34:48 AM 49.9530 5.6840 118° Southeast 546 628 37,000  Level FlightAware ADS-B
Sat 06:35:25 AM 49.9100 5.8110 118° Southeast 547 629 37,000  Level FlightAware ADS-B
Sat 06:36:02 AM 49.8680 5.9340 118° Southeast 548 631 37,000  Level FlightAware ADS-B
Sat 06:36:38 AM 49.8250 6.0630 117° Southeast 548 631 37,000  Level FlightAware ADS-B
Sat 06:37:11 AM 49.7870 6.1720 118° Southeast 547 629 37,000  Level FlightAware ADS-B
Sat 06:37:45 AM 49.7440 6.2980 118° Southeast 546 628 37,000  Level FlightAware ADS-B
Sat 06:38:22 AM 49.7010 6.4220 118° Southeast 546 628 37,000  Level FlightAware ADS-B
Sat 06:38:53 AM 49.6720 6.5050 118° Southeast 545 627 37,000  Level FlightAware ADS-B
Sat 06:39:29 AM 49.6210 6.6510 118° Southeast 542 624 37,000  Level FlightAware ADS-B
Sat 06:40:09 AM 49.5720 6.7860 119° Southeast 538 619 37,000  Level FlightAware ADS-B
Sat 06:40:42 AM 49.5320 6.8830 122° Southeast 536 617 37,000  Level FlightAware ADS-B
Sat 06:41:14 AM 49.4840 6.9930 124° Southeast 533 613 37,000  Level FlightAware ADS-B
Sat 06:41:50 AM 49.4350 7.1000 125° Southeast 530 610 37,000  Level FlightAware ADS-B
Sat 06:42:29 AM 49.3830 7.2140 125° Southeast 529 609 37,000  Level FlightAware ADS-B
Sat 06:43:00 AM 49.3340 7.3170 126° Southeast 527 606 37,000  Level FlightAware ADS-B
Sat 06:43:34 AM 49.2870 7.4170 126° Southeast 525 604 37,000  Level FlightAware ADS-B
Sat 06:44:12 AM 49.2310 7.5360 126° Southeast 525 604 37,000  Level FlightAware ADS-B
Sat 06:44:44 AM 49.1850 7.6320 126° Southeast 524 603 37,000  Level FlightAware ADS-B
Sat 06:45:28 AM 49.1230 7.7640 126° Southeast 524 603 37,000  Level FlightAware ADS-B
Sat 06:46:02 AM 49.0760 7.8610 126° Southeast 523 602 37,000  Level FlightAware ADS-B
Sat 06:46:37 AM 49.0270 7.9630 126° Southeast 523 602 37,000  Level FlightAware ADS-B
Sat 06:47:14 AM 48.9720 8.0780 126° Southeast 522 601 37,000  Level FlightAware ADS-B
Sat 06:47:48 AM 48.9250 8.1760 126° Southeast 522 601 37,000  Level FlightAware ADS-B
Sat 06:48:26 AM 48.8680 8.2920 127° Southeast 521 600 37,000  Level FlightAware ADS-B
Sat 06:48:57 AM 48.8240 8.3820 127° Southeast 520 598 37,000  Level FlightAware ADS-B
Sat 06:49:31 AM 48.7780 8.4770 126° Southeast 519 597 37,000  Level FlightAware ADS-B
Sat 06:50:15 AM 48.7210 8.5940 126° Southeast 519 597 37,000  Level FlightAware ADS-B
Sat 06:50:54 AM 48.6600 8.7180 127° Southeast 519 597 37,000  Level FlightAware ADS-B
Sat 06:51:30 AM 48.6090 8.8210 127° Southeast 515 593 37,000  Level FlightAware ADS-B
Sat 06:52:07 AM 48.5620 8.9160 127° Southeast 514 592 37,000  Level FlightAware ADS-B
Sat 06:52:46 AM 48.4980 9.0430 127° Southeast 515 593 37,000  Level FlightAware ADS-B
Sat 06:53:21 AM 48.4480 9.1430 127° Southeast 515 593 37,000  Level FlightAware ADS-B
Sat 06:54:03 AM 48.3870 9.2650 127° Southeast 515 593 37,000  Level FlightAware ADS-B
Sat 06:54:38 AM 48.3350 9.3680 127° Southeast 514 592 37,000  Level FlightAware ADS-B
Sat 06:55:15 AM 48.2830 9.4640 129° Southeast 519 597 37,000  Level FlightAware ADS-B
Sat 06:55:48 AM 48.2200 9.5550 136° Southeast 518 596 37,000  Level FlightAware ADS-B
Sat 06:56:24 AM 48.1610 9.6310 139° Southeast 517 595 37,000  Level FlightAware ADS-B
Sat 06:56:59 AM 48.0910 9.7210 139° Southeast 517 595 37,000  Level FlightAware ADS-B
Sat 06:57:44 AM 48.0080 9.8260 140° Southeast 517 595 37,000  Level FlightAware ADS-B
Sat 06:58:20 AM 47.9440 9.9080 139° Southeast 517 595 37,000  Level FlightAware ADS-B
Sat 06:58:54 AM 47.8800 9.9880 140° Southeast 519 597 37,000  Level FlightAware ADS-B
Sat 06:59:31 AM 47.8090 10.0700 142° Southeast 520 598 37,000  Level FlightAware ADS-B
Sat 07:00:02 AM 47.7500 10.1350 143° Southeast 521 600 37,000  Level FlightAware ADS-B
Sat 07:00:36 AM 47.6830 10.2080 144° Southeast 521 600 37,000  Level FlightAware ADS-B
Sat 07:01:19 AM 47.6020 10.2960 144° Southeast 523 602 37,000  Level FlightAware ADS-B
Sat 07:02:02 AM 47.5220 10.3820 144° Southeast 524 603 37,000  Level FlightAware ADS-B
Sat 07:02:41 AM 47.4410 10.4680 144° Southeast 525 604 37,000  Level FlightAware ADS-B
Sat 07:03:20 AM 47.3610 10.5400 149° Southeast 526 605 37,000  Level FlightAware ADS-B
Sat 07:03:50 AM 47.2960 10.5900 152° Southeast 527 606 37,000  Level FlightAware ADS-B
Sat 07:04:27 AM 47.2150 10.6510 153° Southeast 528 608 37,000  Level FlightAware ADS-B
Sat 07:05:03 AM 47.1340 10.6990 158° South 521 600 37,000  Level FlightAware ADS-B
Sat 07:05:37 AM 47.0600 10.7470 156° South 527 606 37,000  Level FlightAware ADS-B
Sat 07:06:13 AM 46.9890 10.8220 144° Southeast 521 600 37,000  Level FlightAware ADS-B
Sat 07:06:46 AM 46.9300 10.9030 137° Southeast 520 598 37,000  Level FlightAware ADS-B
Sat 07:07:23 AM 46.8640 10.9940 137° Southeast 519 597 37,000  Level FlightAware ADS-B
Sat 07:08:01 AM 46.8000 11.0840 136° Southeast 519 597 37,000  Level FlightAware ADS-B
Sat 07:08:34 AM 46.7390 11.1680 137° Southeast 519 597 37,000  Level FlightAware ADS-B
Sat 07:09:07 AM 46.6840 11.2440 137° Southeast 519 597 37,000  Level FlightAware ADS-B
Sat 07:09:47 AM 46.6160 11.3360 137° Southeast 519 597 37,000  Level FlightAware ADS-B
Sat 07:10:19 AM 46.5560 11.4170 137° Southeast 520 598 37,000  Level FlightAware ADS-B
Sat 07:10:57 AM 46.4890 11.5080 137° Southeast 520 598 37,000  Level FlightAware ADS-B
Sat 07:11:45 AM 46.4050 11.6200 137° Southeast 521 600 37,000  Level FlightAware ADS-B
Sat 07:12:22 AM 46.3380 11.7110 137° Southeast 522 601 37,000  Level FlightAware ADS-B
Sat 07:12:55 AM 46.2800 11.7880 137° Southeast 522 601 37,000  Level FlightAware ADS-B
Sat 07:13:28 AM 46.2240 11.8630 137° Southeast 521 600 37,000  Level FlightAware ADS-B
Sat 07:14:06 AM 46.1570 11.9520 137° Southeast 520 598 37,000  Level FlightAware ADS-B
Sat 07:14:39 AM 46.0980 12.0310 137° Southeast 520 598 37,000  Level FlightAware ADS-B
Sat 07:15:12 AM 46.0410 12.1120 135° Southeast 514 592 37,000  Level FlightAware ADS-B
Sat 07:15:45 AM 45.9890 12.1940 132° Southeast 513 590 37,000  Level FlightAware ADS-B
Sat 07:16:21 AM 45.9340 12.2810 132° Southeast 511 588 37,000  Level FlightAware ADS-B
Sat 07:17:00 AM 45.8730 12.3770 132° Southeast 510 587 37,000  Level FlightAware ADS-B
Sat 07:17:38 AM 45.8170 12.4680 131° Southeast 509 586 37,000  Level FlightAware ADS-B
Sat 07:18:13 AM 45.7570 12.5650 132° Southeast 509 586 37,000  Level FlightAware ADS-B
Sat 07:18:44 AM 45.7100 12.6400 132° Southeast 510 587 37,000  Level FlightAware ADS-B
Sat 07:19:23 AM 45.6490 12.7370 132° Southeast 510 587 37,000  Level FlightAware ADS-B
Sat 07:19:54 AM 45.5980 12.8170 132° Southeast 510 587 37,000  Level FlightAware ADS-B
Sat 07:20:29 AM 45.5490 12.9070 128° Southeast 512 589 37,000  Level FlightAware ADS-B
Sat 07:21:14 AM 45.4840 13.0310 127° Southeast 512 589 37,000  Level FlightAware ADS-B
Sat 07:21:51 AM 45.4370 13.1200 127° Southeast 508 585 37,000  Level FlightAware ADS-B
Sat 07:22:33 AM 45.3760 13.2400 126° Southeast 508 585 37,000  Level FlightAware ADS-B
Sat 07:23:14 AM 45.3140 13.3590 127° Southeast 515 593 37,000  Level FlightAware ADS-B
Sat 07:23:53 AM 45.2680 13.4480 126° Southeast 516 594 37,000  Level FlightAware ADS-B
Sat 07:24:23 AM 45.2140 13.5500 127° Southeast 516 594 37,000  Level FlightAware ADS-B
Sat 07:24:52 AM 45.1800 13.6160 126° Southeast 516 594 37,000  Level FlightAware ADS-B
Sat 07:25:31 AM 45.1300 13.7100 127° Southeast 516 594 37,000  Level FlightAware ADS-B
Sat 07:26:15 AM 45.0640 13.8340 127° Southeast 515 593 37,000  Level FlightAware ADS-B
Sat 07:26:51 AM 45.0200 13.9170 127° Southeast 515 593 37,000  Level FlightAware ADS-B
Sat 07:27:37 AM 44.9420 14.0650 127° Southeast 516 594 37,000  Level FlightAware ADS-B
Sat 07:28:12 AM 44.8900 14.1630 127° Southeast 516 594 37,000  Level FlightAware ADS-B
Sat 07:28:48 AM 44.8410 14.2560 127° Southeast 516 594 37,000  Level FlightAware ADS-B
Sat 07:29:24 AM 44.7900 14.3510 127° Southeast 516 594 37,000  Level FlightAware ADS-B
Sat 07:29:53 AM 44.7450 14.4360 127° Southeast 517 595 37,000  Level FlightAware ADS-B
Sat 07:30:32 AM 44.6940 14.5300 127° Southeast 516 594 37,000  Level FlightAware ADS-B
Sat 07:31:07 AM 44.6370 14.6360 127° Southeast 516 594 37,000  Level FlightAware ADS-B
Sat 07:31:42 AM 44.5890 14.7250 127° Southeast 514 592 37,000  Level FlightAware ADS-B
Sat 07:32:29 AM 44.5230 14.8470 127° Southeast 514 592 37,000  Level FlightAware ADS-B
Sat 07:33:02 AM 44.4780 14.9300 127° Southeast 513 590 37,000  Level FlightAware ADS-B
Sat 07:33:46 AM 44.4130 15.0500 127° Southeast 512 589 37,000  Level FlightAware ADS-B
Sat 07:34:23 AM 44.3580 15.1520 127° Southeast 510 587 37,000  Level FlightAware ADS-B
Sat 07:34:59 AM 44.3130 15.2330 128° Southeast 390 449 37,000  Level FlightAware ADS-B
Sat 07:35:34 AM 44.2550 15.3390 127° Southeast 507 583 37,000  Level FlightAware ADS-B
Sat 07:36:09 AM 44.2050 15.4290 128° Southeast 504 580 37,000  Level FlightAware ADS-B
Sat 07:36:44 AM 44.1540 15.5210 128° Southeast 504 580 37,000  Level FlightAware ADS-B
Sat 07:37:19 AM 44.1070 15.6060 128° Southeast 502 578 37,000  Level FlightAware ADS-B
Sat 07:37:54 AM 44.0550 15.7000 128° Southeast 502 578 37,000  Level FlightAware ADS-B
Sat 07:38:30 AM 44.0090 15.7830 128° Southeast 502 578 37,000  Level FlightAware ADS-B
Sat 07:39:00 AM 43.9610 15.8670 128° Southeast 501 577 37,000  Level FlightAware ADS-B
Sat 07:39:40 AM 43.9050 15.9680 128° Southeast 501 577 37,000  Level FlightAware ADS-B
Sat 07:40:13 AM 43.8620 16.0450 128° Southeast 501 577 37,000  Level FlightAware ADS-B
Sat 07:40:55 AM 43.7990 16.1570 128° Southeast 503 579 37,000  Level FlightAware ADS-B
Sat 07:41:31 AM 43.7470 16.2500 128° Southeast 503 579 37,000  Level FlightAware ADS-B
Sat 07:42:07 AM 43.6940 16.3440 128° Southeast 503 579 37,000  Level FlightAware ADS-B
Sat 07:42:44 AM 43.6440 16.4320 128° Southeast 504 580 37,000  Level FlightAware ADS-B
Sat 07:43:19 AM 43.5900 16.5260 128° Southeast 503 579 37,000  Level FlightAware ADS-B
Sat 07:43:53 AM 43.5420 16.6110 128° Southeast 504 580 37,000  Level FlightAware ADS-B
Sat 07:44:27 AM 43.4920 16.6980 128° Southeast 504 580 37,000  Level FlightAware ADS-B
Sat 07:45:03 AM 43.4400 16.7890 128° Southeast 506 582 37,000  Level FlightAware ADS-B
Sat 07:45:39 AM 43.3870 16.8810 128° Southeast 506 582 37,000  Level FlightAware ADS-B
Sat 07:46:11 AM 43.3410 16.9610 128° Southeast 506 582 37,000  Level FlightAware ADS-B
Sat 07:46:49 AM 43.2860 17.0570 128° Southeast 506 582 37,000  Level FlightAware ADS-B
Sat 07:47:23 AM 43.2360 17.1420 129° Southeast 506 582 37,000  Level FlightAware ADS-B
Sat 07:47:57 AM 43.1880 17.2270 128° Southeast 506 582 37,000  Level FlightAware ADS-B
Sat 07:48:31 AM 43.1380 17.3130 129° Southeast 506 582 37,000  Level FlightAware ADS-B
Sat 07:49:05 AM 43.0880 17.4000 128° Southeast 507 583 37,000  Level FlightAware ADS-B
Sat 07:49:43 AM 43.0330 17.4950 128° Southeast 507 583 37,000  Level FlightAware ADS-B
Sat 07:50:17 AM 42.9840 17.5770 129° Southeast 508 585 37,000  Level FlightAware ADS-B
Sat 07:50:53 AM 42.9310 17.6690 128° Southeast 508 585 37,000  Level FlightAware ADS-B
Sat 07:51:35 AM 42.8680 17.7750 129° Southeast 507 583 37,000  Level FlightAware ADS-B
Sat 07:52:07 AM 42.8210 17.8540 129° Southeast 508 585 37,000  Level FlightAware ADS-B
Sat 07:52:49 AM 42.7590 17.9590 129° Southeast 507 583 37,000  Level FlightAware ADS-B
Sat 07:53:29 AM 42.7000 18.0570 129° Southeast 506 582 37,000  Level FlightAware ADS-B
Sat 07:54:01 AM 42.6530 18.1360 129° Southeast 506 582 37,000  Level FlightAware ADS-B
Sat 07:54:37 AM 42.6000 18.2240 129° Southeast 507 583 37,000  Level FlightAware ADS-B
Sat 07:55:11 AM 42.5470 18.3070 131° Southeast 505 581 37,000  Level FlightAware ADS-B
Sat 07:55:47 AM 42.4870 18.3880 135° Southeast 505 581 37,000  Level FlightAware ADS-B
Sat 07:56:19 AM 42.4360 18.4570 135° Southeast 504 580 37,000  Level FlightAware ADS-B
Sat 07:56:57 AM 42.3720 18.5430 135° Southeast 504 580 37,000  Level FlightAware ADS-B
Sat 07:57:31 AM 42.3160 18.6200 135° Southeast 504 580 37,000  Level FlightAware ADS-B
Sat 07:58:06 AM 42.2610 18.6950 135° Southeast 504 580 37,000  Level FlightAware ADS-B
Sat 07:58:40 AM 42.2060 18.7700 135° Southeast 504 580 37,000  Level FlightAware ADS-B
Sat 07:59:17 AM 42.1420 18.8560 135° Southeast 504 580 37,000  Level FlightAware ADS-B
Sat 07:59:59 AM 42.0730 18.9490 135° Southeast 504 580 37,000  Level FlightAware ADS-B
Sat 08:00:35 AM 42.0140 19.0300 134° Southeast 504 580 37,000  Level FlightAware ADS-B
Sat 08:01:14 AM 41.9610 19.1000 136° Southeast 503 579 37,000  Level FlightAware ADS-B
Sat 08:01:51 AM 41.8900 19.1970 134° Southeast 503 579 37,000  Level FlightAware ADS-B
Sat 08:02:24 AM 41.8360 19.2690 135° Southeast 504 580 37,000  Level FlightAware ADS-B
Sat 08:03:03 AM 41.7690 19.3550 136° Southeast 504 580 37,000  Level FlightAware ADS-B
Sat 08:03:35 AM 41.7120 19.4220 139° Southeast 506 582 37,000  Level FlightAware ADS-B
Sat 08:04:10 AM 41.6520 19.4900 140° Southeast 507 583 37,000  Level FlightAware ADS-B
Sat 08:04:44 AM 41.5890 19.5630 139° Southeast 510 587 37,000  Level FlightAware ADS-B
Sat 08:05:22 AM 41.5220 19.6390 140° Southeast 512 589 37,000  Level FlightAware ADS-B
Sat 08:05:52 AM 41.4670 19.7020 139° Southeast 514 592 37,000  Level FlightAware ADS-B
Sat 08:06:28 AM 41.4040 19.7780 138° Southeast 519 597 37,000  Level FlightAware ADS-B
Sat 08:07:03 AM 41.3460 19.8570 134° Southeast 521 600 37,000  Level FlightAware ADS-B
Sat 08:07:41 AM 41.2830 19.9430 134° Southeast 524 603 37,000  Level FlightAware ADS-B
Sat 08:08:15 AM 41.2240 20.0240 134° Southeast 526 605 37,000  Level FlightAware ADS-B
Sat 08:08:48 AM 41.1660 20.1020 135° Southeast 528 608 37,000  Level FlightAware ADS-B
Sat 08:09:22 AM 41.1130 20.1720 135° Southeast 528 608 37,000  Level FlightAware ADS-B
Sat 08:09:58 AM 41.0480 20.2590 135° Southeast 529 609 37,000  Level FlightAware ADS-B
Sat 08:10:38 AM 40.9800 20.3500 135° Southeast 530 610 37,000  Level FlightAware ADS-B
Sat 08:11:21 AM 40.9370 20.4060 135° Southeast 531 611 37,000  Level FlightAware ADS-B
Sat 08:11:52 AM 40.8660 20.5010 135° Southeast 532 612 37,000  Level FlightAware ADS-B
Sat 08:12:31 AM 40.7850 20.6070 135° Southeast 533 613 37,000  Level FlightAware ADS-B
Sat 08:13:04 AM 40.7230 20.6880 135° Southeast 533 613 37,000  Level FlightAware ADS-B
Sat 08:13:40 AM 40.6590 20.7710 135° Southeast 533 613 37,000  Level FlightAware ADS-B
Sat 08:14:16 AM 40.5960 20.8540 135° Southeast 533 613 37,000  Level FlightAware ADS-B
Sat 08:14:48 AM 40.5400 20.9270 135° Southeast 534 615 37,000  Level FlightAware ADS-B
Sat 08:15:24 AM 40.4750 21.0070 137° Southeast 533 613 37,000  Level FlightAware ADS-B
Sat 08:15:59 AM 40.4120 21.0840 137° Southeast 535 616 37,000  Level FlightAware ADS-B
Sat 08:16:34 AM 40.3480 21.1620 137° Southeast 537 618 37,000  Level FlightAware ADS-B
Sat 08:17:12 AM 40.2780 21.2460 138° Southeast 539 620 37,000  Level FlightAware ADS-B
Sat 08:17:45 AM 40.2190 21.3170 137° Southeast 540 621 37,000  Level FlightAware ADS-B
Sat 08:18:28 AM 40.1380 21.4130 138° Southeast 540 621 37,000  Level FlightAware ADS-B
Sat 08:19:02 AM 40.0760 21.4870 138° Southeast 541 623 37,000  Level FlightAware ADS-B
Sat 08:19:38 AM 40.0090 21.5670 138° Southeast 542 624 37,000  Level FlightAware ADS-B
Sat 08:20:12 AM 39.9450 21.6430 138° Southeast 542 624 37,000  Level FlightAware ADS-B
Sat 08:20:45 AM 39.8860 21.7110 139° Southeast 541 623 37,000  Level FlightAware ADS-B
Sat 08:21:22 AM 39.8160 21.7940 138° Southeast 538 619 37,000  Level FlightAware ADS-B
Sat 08:21:56 AM 39.7530 21.8670 138° Southeast 536 617 37,000  Level FlightAware ADS-B
Sat 08:22:34 AM 39.6820 21.9490 138° Southeast 536 617 37,000  Level FlightAware ADS-B
Sat 08:23:06 AM 39.6240 22.0180 137° Southeast 536 617 37,000  Level FlightAware ADS-B
Sat 08:23:44 AM 39.5520 22.1000 139° Southeast 531 611 37,000  Level FlightAware ADS-B
Sat 08:24:15 AM 39.4970 22.1640 138° Southeast 528 608 37,000  Level FlightAware ADS-B
Sat 08:24:52 AM 39.4280 22.2430 139° Southeast 524 603 37,000  Level FlightAware ADS-B
Sat 08:25:27 AM 39.3670 22.3140 138° Southeast 524 603 37,000  Level FlightAware ADS-B
Sat 08:26:01 AM 39.3040 22.3860 139° Southeast 524 603 37,000  Level FlightAware ADS-B
Sat 08:26:35 AM 39.2430 22.4560 138° Southeast 525 604 37,000  Level FlightAware ADS-B
Sat 08:27:13 AM 39.1730 22.5350 139° Southeast 527 606 37,000  Level FlightAware ADS-B
Sat 08:27:45 AM 39.1170 22.5980 139° Southeast 528 608 37,000  Level FlightAware ADS-B
Sat 08:28:29 AM 39.0340 22.6920 139° Southeast 531 611 37,000  Level FlightAware ADS-B
Sat 08:29:04 AM 38.9700 22.7640 139° Southeast 532 612 37,000  Level FlightAware ADS-B
Sat 08:29:44 AM 38.8930 22.8510 139° Southeast 532 612 37,000  Level FlightAware ADS-B
Sat 08:30:22 AM 38.8270 22.9240 139° Southeast 533 613 37,000  Level FlightAware ADS-B
Sat 08:30:56 AM 38.7610 22.9970 139° Southeast 534 615 37,000  Level FlightAware ADS-B
Sat 08:31:36 AM 38.6850 23.0820 139° Southeast 535 616 37,000  Level FlightAware ADS-B
Sat 08:32:11 AM 38.6210 23.1520 139° Southeast 534 615 37,000  Level FlightAware ADS-B
Sat 08:32:46 AM 38.5540 23.2270 139° Southeast 535 616 37,000  Level FlightAware ADS-B
Sat 08:33:21 AM 38.4910 23.2960 139° Southeast 535 616 37,000  Level FlightAware ADS-B
Sat 08:33:56 AM 38.4230 23.3700 140° Southeast 535 616 37,000  Level FlightAware ADS-B
Sat 08:34:37 AM 38.3460 23.4550 139° Southeast 532 612 37,000  Level FlightAware ADS-B
Sat 08:35:09 AM 38.2920 23.5150 139° Southeast 534 615 37,000  Level FlightAware ADS-B
Sat 08:35:51 AM 38.2050 23.6090 140° Southeast 536 617 37,000  Level FlightAware ADS-B
Sat 08:36:26 AM 38.1380 23.6830 139° Southeast 537 618 37,000  Level FlightAware ADS-B
Sat 08:37:07 AM 38.0610 23.7670 139° Southeast 539 620 37,000  Level FlightAware ADS-B
Sat 08:37:41 AM 37.9960 23.8380 139° Southeast 537 618 37,000  Level FlightAware ADS-B
Sat 08:38:18 AM 37.9280 23.9110 140° Southeast 536 617 37,000  Level FlightAware ADS-B
Sat 08:38:51 AM 37.8630 23.9820 139° Southeast 537 618 37,000  Level FlightAware ADS-B
Sat 08:39:28 AM 37.7960 24.0590 138° Southeast 551 634 37,000  Level FlightAware ADS-B
Sat 08:40:02 AM 37.7460 24.1500 125° Southeast 556 640 37,000  Level FlightAware ADS-B
Sat 08:40:41 AM 37.6910 24.2560 123° Southeast 554 638 37,000  Level FlightAware ADS-B
Sat 08:41:22 AM 37.6300 24.3700 124° Southeast 552 635 37,000  Level FlightAware ADS-B
Sat 08:41:52 AM 37.5890 24.4510 123° Southeast 553 636 37,000  Level FlightAware ADS-B
Sat 08:42:30 AM 37.5420 24.5470 122° Southeast 553 636 37,000  Level FlightAware ADS-B
Sat 08:43:02 AM 37.4940 24.6410 123° Southeast 550 633 37,000  Level FlightAware ADS-B
Sat 08:43:38 AM 37.4450 24.7390 122° Southeast 550 633 37,000  Level FlightAware ADS-B
Sat 08:44:14 AM 37.3950 24.8360 123° Southeast 550 633 37,000  Level FlightAware ADS-B
Sat 08:44:48 AM 37.3510 24.9230 122° Southeast 550 633 37,000  Level FlightAware ADS-B
Sat 08:45:26 AM 37.2970 25.0290 123° Southeast 550 633 37,000  Level FlightAware ADS-B
Sat 08:45:56 AM 37.2550 25.1100 123° Southeast 551 634 37,000  Level FlightAware ADS-B
Sat 08:46:32 AM 37.2070 25.2040 123° Southeast 551 634 37,000  Level FlightAware ADS-B
Sat 08:47:10 AM 37.1550 25.3040 123° Southeast 553 636 37,000  Level FlightAware ADS-B
Sat 08:47:46 AM 37.1070 25.3970 123° Southeast 553 636 37,000  Level FlightAware ADS-B
Sat 08:48:18 AM 37.0610 25.4870 123° Southeast 554 638 37,000  Level FlightAware ADS-B
Sat 08:48:54 AM 37.0070 25.5910 123° Southeast 553 636 37,000  Level FlightAware ADS-B
Sat 08:49:33 AM 36.9530 25.6940 123° Southeast 554 638 37,000  Level FlightAware ADS-B
Sat 08:49:58 AM 36.9180 25.7610 123° Southeast 552 635 37,000  Level FlightAware ADS-B
Sat 08:50:42 AM 36.8550 25.8790 124° Southeast 553 636 37,000  Level FlightAware ADS-B
Sat 08:51:16 AM 36.8080 25.9680 123° Southeast 552 635 37,000  Level FlightAware ADS-B
Sat 08:51:46 AM 36.7660 26.0490 123° Southeast 552 635 37,000  Level FlightAware ADS-B
Sat 08:52:24 AM 36.7130 26.1500 123° Southeast 551 634 37,000  Level FlightAware ADS-B
Sat 08:53:00 AM 36.6640 26.2440 123° Southeast 550 633 37,000  Level FlightAware ADS-B
Sat 08:53:36 AM 36.6120 26.3420 123° Southeast 551 634 37,000  Level FlightAware ADS-B
Sat 08:54:09 AM 36.5680 26.4260 123° Southeast 551 634 37,000  Level FlightAware ADS-B
Sat 08:54:46 AM 36.5130 26.5300 123° Southeast 551 634 37,000  Level FlightAware ADS-B
Sat 08:55:18 AM 36.4690 26.6120 124° Southeast 550 633 37,000  Level FlightAware ADS-B
Sat 08:55:54 AM 36.4190 26.7080 123° Southeast 548 631 37,000  Level FlightAware ADS-B
Sat 08:56:32 AM 36.3660 26.8070 124° Southeast 548 631 37,000  Level FlightAware ADS-B
Sat 08:57:02 AM 36.3240 26.8850 124° Southeast 547 629 37,000  Level FlightAware ADS-B
Sat 08:57:41 AM 36.2750 26.9760 124° Southeast 546 628 37,000  Level FlightAware ADS-B
Sat 08:58:21 AM 36.2280 27.0660 123° Southeast 546 628 37,000  Level FlightAware ADS-B
Sat 08:59:00 AM 36.1830 27.1530 123° Southeast 546 628 37,000  Level FlightAware ADS-B
Sat 08:59:52 AM 36.0910 27.3200 124° Southeast 547 629 37,000  Level FlightAware ADS-B
Sat 09:00:28 AM 36.0490 27.4000 123° Southeast 547 629 37,000  Level FlightAware ADS-B
Sat 09:01:06 AM 36.0040 27.4850 123° Southeast 547 629 37,000  Level FlightAware ADS-B
Sat 09:01:41 AM 35.9630 27.5630 123° Southeast 547 629 37,000  Level FlightAware ADS-B
Sat 09:02:19 AM 35.9190 27.6480 123° Southeast 547 629 37,000  Level FlightAware ADS-B
Sat 09:02:53 AM 35.8790 27.7230 123° Southeast 547 629 37,000  Level FlightAware ADS-B
Sat 09:03:29 AM 35.8370 27.8040 123° Southeast 547 629 37,000  Level FlightAware ADS-B
Sat 09:04:06 AM 35.7930 27.8860 123° Southeast 547 629 37,000  Level FlightAware ADS-B
Sat 09:04:43 AM 35.7500 27.9680 123° Southeast 547 629 37,000  Level FlightAware ADS-B
Sat 09:05:16 AM 35.6330 28.1600 127° Southeast 546 628 37,000  Level FlightAware ADS-B
Sat 09:05:51 AM 35.5800 28.2560 124° Southeast 546 628 37,000  Level FlightAware ADS-B
Sat 09:06:26 AM 35.5310 28.3440 124° Southeast 546 628 37,000  Level FlightAware ADS-B
Sat 09:07:03 AM 35.4780 28.4400 124° Southeast 546 628 37,000  Level FlightAware ADS-B
Sat 09:07:35 AM 35.4320 28.5220 125° Southeast 546 628 37,000  Level FlightAware ADS-B
Sat 09:08:28 AM 35.3630 28.6470 124° Southeast 546 628 37,000  Level FlightAware ADS-B
Sat 09:08:59 AM 35.3120 28.7360 125° Southeast 546 628 37,000  Level FlightAware ADS-B
Sat 09:09:36 AM 35.2600 28.8300 124° Southeast 546 628 37,000  Level FlightAware ADS-B
Sat 09:10:08 AM 35.2150 28.9100 125° Southeast 546 628 37,000  Level FlightAware ADS-B
Sat 09:10:47 AM 35.1680 28.9950 124° Southeast 546 628 37,000  Level FlightAware ADS-B
Sat 09:11:23 AM 35.1210 29.0780 125° Southeast 544 626 37,000  Level FlightAware ADS-B
Sat 09:11:56 AM 35.0610 29.1830 125° Southeast 543 625 37,000  Level FlightAware ADS-B
Sat 09:12:31 AM 35.0130 29.2680 125° Southeast 543 625 37,000  Level FlightAware ADS-B
Sat 09:13:10 AM 34.9670 29.3530 123° Southeast 543 625 37,000  Level FlightAware ADS-B
Sat 09:13:46 AM 34.9240 29.4300 124° Southeast 543 625 37,000  Level FlightAware ADS-B
Sat 09:14:17 AM 34.8620 29.5350 126° Southeast 540 621 37,000  Level FlightAware ADS-B
Sat 09:14:56 AM 34.8040 29.6350 125° Southeast 540 621 37,000  Level FlightAware ADS-B
Sat 09:15:36 AM 34.7470 29.7350 125° Southeast 539 620 37,000  Level FlightAware ADS-B
Sat 09:16:11 AM 34.7010 29.8140 125° Southeast 539 620 37,000  Level FlightAware ADS-B
Sat 09:16:58 AM 34.6420 29.9160 125° Southeast 538 619 37,000  Level FlightAware ADS-B
Sat 09:17:16 AM 34.6100 29.9820 120° Southeast 650 748 37,000  Level FlightAware ADS-B
Sat 09:17:56 AM 34.5600 30.0870 120° Southeast 618 711 37,000  Level FlightAware ADS-B
Sat 09:18:28 AM 34.5270 30.1610 118° Southeast 535 616 37,000  Level FlightAware ADS-B
Sat 09:19:01 AM 34.4800 30.2590 120° Southeast 536 617 37,000  Level FlightAware ADS-B
Sat 09:19:37 AM 34.4360 30.3520 120° Southeast 539 620 37,000  Level FlightAware ADS-B
Sat 09:20:12 AM 34.3900 30.4470 120° Southeast 539 620 37,000  Level FlightAware ADS-B
Sat 09:20:48 AM 34.3450 30.5390 121° Southeast 539 620 37,000  Level FlightAware ADS-B
Sat 09:21:13 AM 34.3130 30.6050 120° Southeast 539 620 37,000  Level FlightAware ADS-B
Sat 09:21:51 AM 34.2690 30.6960 120° Southeast 538 619 37,000  Level FlightAware ADS-B
Sat 09:22:29 AM 34.2180 30.8010 120° Southeast 537 618 37,000  Level FlightAware ADS-B
Sat 09:22:59 AM 34.1820 30.8750 120° Southeast 537 618 37,000  Level FlightAware ADS-B
Sat 09:23:34 AM 34.1360 30.9680 121° Southeast 537 618 37,000  Level FlightAware ADS-B
Sat 09:24:21 AM 34.0780 31.0880 120° Southeast 537 618 37,000  Level FlightAware ADS-B
Sat 09:24:59 AM 34.0270 31.1920 121° Southeast 537 618 37,000  Level FlightAware ADS-B
Sat 09:25:39 AM 33.9770 31.2930 121° Southeast 537 618 37,000  Level FlightAware ADS-B
Sat 09:26:09 AM 33.9380 31.3720 121° Southeast 537 618 37,000  Level FlightAware ADS-B
Sat 09:26:44 AM 33.8980 31.4530 121° Southeast 537 618 37,000  Level FlightAware ADS-B
Sat 09:27:14 AM 33.8570 31.5370 120° Southeast 537 618 37,000  Level FlightAware ADS-B
Sat 09:27:52 AM 33.8150 31.6220 121° Southeast 536 617 37,000  Level FlightAware ADS-B
Sat 09:28:26 AM 33.7670 31.7170 121° Southeast 535 616 37,000  Level FlightAware ADS-B
Sat 09:29:06 AM 33.7130 31.8250 121° Southeast 532 612 37,000  Level FlightAware ADS-B
Sat 09:29:41 AM 33.6710 31.9100 121° Southeast 531 611 37,000  Level FlightAware ADS-B
Sat 09:30:26 AM 33.6120 32.0280 121° Southeast 529 609 37,000  Level FlightAware ADS-B
Sat 09:30:56 AM 33.5730 32.1040 122° Southeast 528 608 37,000  Level FlightAware ADS-B
Sat 09:31:31 AM 33.5310 32.1870 121° Southeast 526 605 37,000  Level FlightAware ADS-B
Sat 09:32:12 AM 33.4780 32.2910 121° Southeast 525 604 37,000  Level FlightAware ADS-B
Sat 09:32:38 AM 33.4460 32.3540 121° Southeast 524 603 37,000  Level FlightAware ADS-B
Sat 09:33:10 AM 33.4050 32.4350 121° Southeast 523 602 37,000  Level FlightAware ADS-B
Sat 09:33:46 AM 33.3670 32.5110 121° Southeast 523 602 37,000 -261 Level FlightAware ADS-B
Sat 09:34:19 AM 33.3200 32.6020 122° Southeast 524 603 36,700 -1,478 Descending FlightAware ADS-B
Sat 09:34:55 AM 33.2750 32.6910 121° Southeast 519 597 35,300 -2,270 Descending FlightAware ADS-B
Sat 09:35:33 AM 33.2350 32.7690 121° Southeast 510 587 33,900 -2,318 Descending FlightAware ADS-B
Sat 09:36:23 AM 33.1680 32.8980 122° Southeast 501 577 31,900 -2,374 Descending FlightAware ADS-B
Sat 09:37:04 AM 33.1150 33.0010 122° Southeast 493 567 30,300 -2,338 Descending FlightAware ADS-B
Sat 09:37:40 AM 33.0700 33.0850 123° Southeast 485 558 28,900 -2,143 Descending FlightAware ADS-B
Sat 09:38:14 AM 33.0340 33.1540 122° Southeast 476 548 27,800 -2,182 Descending FlightAware ADS-B
Sat 09:38:46 AM 32.9940 33.2310 122° Southeast 466 536 26,500 -2,080 Descending FlightAware ADS-B
Sat 09:39:29 AM 32.9480 33.3190 122° Southeast 448 516 25,200 -1,974 Descending FlightAware ADS-B
Sat 09:40:02 AM 32.9100 33.3900 123° Southeast 437 503 24,000 -2,080 Descending FlightAware ADS-B
Sat 09:40:44 AM 32.8650 33.4770 122° Southeast 420 483 22,600 -1,926 Descending FlightAware ADS-B
Sat 09:41:23 AM 32.8260 33.5510 122° Southeast 407 468 21,400 -923 Descending FlightAware ADS-B
Sat 09:42:02 AM 32.7940 33.6140 121° Southeast 407 468 21,400 -1,714 Level FlightAware ADS-B
Sat 09:42:40 AM 32.7510 33.6930 123° Southeast 384 442 19,200 -2,676 Descending FlightAware ADS-B
Sat 09:43:16 AM 32.7160 33.7570 123° Southeast 375 432 18,100 -1,701 Descending FlightAware ADS-B
Sat 09:43:47 AM 32.6880 33.8090 123° Southeast 369 425 17,300 -1,688 Descending FlightAware ADS-B
Sat 09:44:20 AM 32.6580 33.8660 122° Southeast 361 415 16,300 -1,622 Descending FlightAware ADS-B
Sat 09:45:01 AM 32.6220 33.9310 123° Southeast 353 406 15,300 -1,644 Descending FlightAware ADS-B
Sat 09:45:33 AM 32.5920 33.9870 122° Southeast 361 415 14,300 -1,714 Descending FlightAware ADS-B
Sat 09:46:11 AM 32.5590 34.0500 122° Southeast 353 406 13,300 -1,543 Descending FlightAware ADS-B
Sat 09:46:43 AM 32.5320 34.1020 122° Southeast 344 396 12,500 -1,543 Descending FlightAware ADS-B
Sat 09:47:21 AM 32.4990 34.1620 123° Southeast 335 386 11,500 -1,521 Descending FlightAware ADS-B
Sat 09:47:54 AM 32.4680 34.2040 131° Southeast 326 375 10,700 -686 Descending FlightAware ADS-B
Sat 09:48:31 AM 32.4350 34.2430 135° Southeast 326 375 10,700  Level FlightAware ADS-B
Sat 09:49:09 AM 32.4000 34.2840 135° Southeast 326 375 10,700  Level FlightAware ADS-B
Sat 09:49:47 AM 32.3660 34.3250 134° Southeast 326 375 10,700 -1,068 Level FlightAware ADS-B
Sat 09:52:00 AM 32.1479 34.6021 140° Southeast  Level FlightAware Approximate
Sat 09:53:00 AM 32.0666 34.7419 115° Southeast  Level FlightAware Approximate
Sat 09:54:00 AM 32.0000 34.8667 125° Southeast  Level FlightAware Approximate
Sat 09:54:18 AM 32.1490 34.6360 125° Southeast 258 297 5,200  Level FlightAware ADS-B
Sat 09:54:42 AM 32.1330 34.6630 125° Southeast 257 296 5,200  Level FlightAware ADS-B
Sat 09:55:00 AM 32.1210 34.6850 123° Southeast 259 298 5,200  Level FlightAware ADS-B
Sat 09:55:18 AM 32.1090 34.7060 124° Southeast 258 297 5,200  Level FlightAware ADS-B
Sat 09:55:31 AM 32.1010 34.7210 122° Southeast 260 299 5,200  Level FlightAware ADS-B
Sat 09:55:55 AM 32.0870 34.7460 123° Southeast 260 299 5,200  Level FlightAware ADS-B
Sat 09:56:13 AM 32.0730 34.7700 125° Southeast 247 284 5,200 -143 Level FlightAware ADS-B
Sat 09:56:37 AM 32.0550 34.7920 134° Southeast 228 262 5,100 -391 Descending FlightAware ADS-B
Sat 09:56:59 AM 32.0380 34.8100 138° Southeast 224 258 4,900 -450 Descending FlightAware ADS-B
Sat 09:57:17 AM 32.0230 34.8260 138° Southeast 224 258 4,800 -500 Descending FlightAware ADS-B
Sat 09:57:35 AM 32.0110 34.8400 135° Southeast 208 239 4,600 -450 Descending FlightAware ADS-B
Sat 09:57:57 AM 32.0000 34.8520 137° Southeast 199 229 4,500 -857 Descending FlightAware ADS-B
Sat 09:58:10 AM 31.9900 34.8630 137° Southeast 201 231 4,100 -2,222 Descending FlightAware ADS-B
Sat 09:58:24 AM 31.9790 34.8810 126° Southeast 209 241 3,500 -1,610 Descending FlightAware ADS-B
Sat 09:58:51 AM 31.9820 34.9080 83° East 186 214 3,000 -968 Descending FlightAware ADS-B
Sat 09:59:26 AM 31.9890 34.9380 75° East 173 199 2,500 -952 Descending FlightAware ADS-B
Sat 09:59:54 AM 32.0010 34.9610 58° Northeast 177 204 2,000 -947 Descending FlightAware ADS-B
Sat 10:00:04 AM 32.0060 34.9630 19° North 167 192 1,900 -171 Descending FlightAware ADS-B
Sat 10:00:29 AM 32.0210 34.9710 24° Northeast 167 192 1,900 -1,000 Level FlightAware ADS-B
Sat 10:00:40 AM 32.0310 34.9470 296° West 163 188 1,300 -1,826 Descending FlightAware ADS-B
Sat 10:00:52 AM 32.0320 34.9390 278° West 161 185 1,200 -162 Descending FlightAware ADS-B
Sat 10:01:17 AM 32.0320 34.9210 270° West 161 185 1,200  Level FlightAware ADS-B
Sat 10:01:58 AM 32.0230 34.8820 255° West 145 167 -1,756 Descending FlightAware ADS-B
Sat 10:02:24 AM 32.0370 34.8850 10° North 145 167  Level FlightAware ADS-B

Login

Don't have an account? Register now (free) for customized features, flight alerts, and more!